<?xml version="1.0" encoding="UTF-8" standalone="no" ?>
<gpx xmlns="http://www.topografix.com/GPX/1/1" xmlns:xsi="http://www.w3.org/2001/XMLSchema-instance" xsi:schemaLocation="http://www.topografix.com/GPX/1/1 http://www.topografix.com/GPX/1/1/gpx.xsd" version="1.1" creator="VisuGPX - https://www.visugpx.com">
  <metadata>
    <name>Campuac</name>
  </metadata>
  <trk>
    <name><![CDATA[10685705-CAMPUAC VILLECOMTAL]]></name>
    <trkseg>
      <trkpt lat="44.55686" lon="2.4867">
        <ele>625</ele>
        <time>2021-02-22T14:37:56Z</time>
      </trkpt>
      <trkpt lat="44.55688" lon="2.48695">
        <ele>628</ele>
        <time>2021-02-22T14:38:00Z</time>
      </trkpt>
      <trkpt lat="44.55694" lon="2.48765">
        <ele>634</ele>
        <time>2021-02-22T14:38:12Z</time>
      </trkpt>
      <trkpt lat="44.55705" lon="2.48765">
        <ele>634</ele>
        <time>2021-02-22T14:38:14Z</time>
      </trkpt>
      <trkpt lat="44.55702" lon="2.48826">
        <ele>638</ele>
        <time>2021-02-22T14:38:25Z</time>
      </trkpt>
      <trkpt lat="44.557" lon="2.48856">
        <ele>638</ele>
        <time>2021-02-22T14:38:30Z</time>
      </trkpt>
      <trkpt lat="44.55696" lon="2.48874">
        <ele>638</ele>
        <time>2021-02-22T14:38:33Z</time>
      </trkpt>
      <trkpt lat="44.55694" lon="2.48906">
        <ele>637</ele>
        <time>2021-02-22T14:38:38Z</time>
      </trkpt>
      <trkpt lat="44.55696" lon="2.48925">
        <ele>635</ele>
        <time>2021-02-22T14:38:41Z</time>
      </trkpt>
      <trkpt lat="44.55701" lon="2.48928">
        <ele>635</ele>
        <time>2021-02-22T14:38:43Z</time>
      </trkpt>
      <trkpt lat="44.55704" lon="2.48947">
        <ele>632</ele>
        <time>2021-02-22T14:38:46Z</time>
      </trkpt>
      <trkpt lat="44.55707" lon="2.48951">
        <ele>632</ele>
        <time>2021-02-22T14:38:47Z</time>
      </trkpt>
      <trkpt lat="44.55718" lon="2.48961">
        <ele>631</ele>
        <time>2021-02-22T14:38:50Z</time>
      </trkpt>
      <trkpt lat="44.55732" lon="2.48967">
        <ele>631</ele>
        <time>2021-02-22T14:38:53Z</time>
      </trkpt>
      <trkpt lat="44.55748" lon="2.48984">
        <ele>629</ele>
        <time>2021-02-22T14:38:58Z</time>
      </trkpt>
      <trkpt lat="44.55774" lon="2.49015">
        <ele>624</ele>
        <time>2021-02-22T14:39:06Z</time>
      </trkpt>
      <trkpt lat="44.55795" lon="2.49045">
        <ele>619</ele>
        <time>2021-02-22T14:39:13Z</time>
      </trkpt>
      <trkpt lat="44.55825" lon="2.49094">
        <ele>613</ele>
        <time>2021-02-22T14:39:24Z</time>
      </trkpt>
      <trkpt lat="44.55842" lon="2.49125">
        <ele>608</ele>
        <time>2021-02-22T14:39:30Z</time>
      </trkpt>
      <trkpt lat="44.5586" lon="2.49161">
        <ele>604</ele>
        <time>2021-02-22T14:39:38Z</time>
      </trkpt>
      <trkpt lat="44.55866" lon="2.49177">
        <ele>602</ele>
        <time>2021-02-22T14:39:41Z</time>
      </trkpt>
      <trkpt lat="44.55867" lon="2.49189">
        <ele>601</ele>
        <time>2021-02-22T14:39:43Z</time>
      </trkpt>
      <trkpt lat="44.55875" lon="2.49195">
        <ele>601</ele>
        <time>2021-02-22T14:39:45Z</time>
      </trkpt>
      <trkpt lat="44.55884" lon="2.49208">
        <ele>600</ele>
        <time>2021-02-22T14:39:48Z</time>
      </trkpt>
      <trkpt lat="44.55898" lon="2.49236">
        <ele>597</ele>
        <time>2021-02-22T14:39:53Z</time>
      </trkpt>
      <trkpt lat="44.55928" lon="2.49307">
        <ele>592</ele>
        <time>2021-02-22T14:40:07Z</time>
      </trkpt>
      <trkpt lat="44.55946" lon="2.49341">
        <ele>591</ele>
        <time>2021-02-22T14:40:14Z</time>
      </trkpt>
      <trkpt lat="44.55969" lon="2.49372">
        <ele>591</ele>
        <time>2021-02-22T14:40:22Z</time>
      </trkpt>
      <trkpt lat="44.5607" lon="2.49524">
        <ele>591</ele>
        <time>2021-02-22T14:40:56Z</time>
      </trkpt>
      <trkpt lat="44.56102" lon="2.49581">
        <ele>591</ele>
        <time>2021-02-22T14:41:08Z</time>
      </trkpt>
      <trkpt lat="44.56108" lon="2.49593">
        <ele>591</ele>
        <time>2021-02-22T14:41:11Z</time>
      </trkpt>
      <trkpt lat="44.56112" lon="2.49602">
        <ele>590</ele>
        <time>2021-02-22T14:41:12Z</time>
      </trkpt>
      <trkpt lat="44.56154" lon="2.49692">
        <ele>590</ele>
        <time>2021-02-22T14:41:30Z</time>
      </trkpt>
      <trkpt lat="44.56133" lon="2.49712">
        <ele>589</ele>
        <time>2021-02-22T14:41:36Z</time>
      </trkpt>
      <trkpt lat="44.56085" lon="2.49769">
        <ele>587</ele>
        <time>2021-02-22T14:41:51Z</time>
      </trkpt>
      <trkpt lat="44.56048" lon="2.49818">
        <ele>586</ele>
        <time>2021-02-22T14:42:03Z</time>
      </trkpt>
      <trkpt lat="44.56023" lon="2.49874">
        <ele>586</ele>
        <time>2021-02-22T14:42:14Z</time>
      </trkpt>
      <trkpt lat="44.55986" lon="2.49975">
        <ele>586</ele>
        <time>2021-02-22T14:42:33Z</time>
      </trkpt>
      <trkpt lat="44.55985" lon="2.49988">
        <ele>586</ele>
        <time>2021-02-22T14:42:35Z</time>
      </trkpt>
      <trkpt lat="44.55993" lon="2.50118">
        <ele>585</ele>
        <time>2021-02-22T14:42:57Z</time>
      </trkpt>
      <trkpt lat="44.56019" lon="2.50211">
        <ele>585</ele>
        <time>2021-02-22T14:43:13Z</time>
      </trkpt>
      <trkpt lat="44.56063" lon="2.50346">
        <ele>584</ele>
        <time>2021-02-22T14:43:38Z</time>
      </trkpt>
      <trkpt lat="44.5607" lon="2.50371">
        <ele>585</ele>
        <time>2021-02-22T14:43:42Z</time>
      </trkpt>
      <trkpt lat="44.56071" lon="2.50392">
        <ele>586</ele>
        <time>2021-02-22T14:43:46Z</time>
      </trkpt>
      <trkpt lat="44.5607" lon="2.50402">
        <ele>586</ele>
        <time>2021-02-22T14:43:48Z</time>
      </trkpt>
      <trkpt lat="44.56066" lon="2.50438">
        <ele>586</ele>
        <time>2021-02-22T14:43:54Z</time>
      </trkpt>
      <trkpt lat="44.56066" lon="2.50463">
        <ele>586</ele>
        <time>2021-02-22T14:43:58Z</time>
      </trkpt>
      <trkpt lat="44.56072" lon="2.50551">
        <ele>587</ele>
        <time>2021-02-22T14:44:13Z</time>
      </trkpt>
      <trkpt lat="44.56081" lon="2.50654">
        <ele>588</ele>
        <time>2021-02-22T14:44:30Z</time>
      </trkpt>
      <trkpt lat="44.56094" lon="2.50717">
        <ele>587</ele>
        <time>2021-02-22T14:44:41Z</time>
      </trkpt>
      <trkpt lat="44.56095" lon="2.50721">
        <ele>587</ele>
        <time>2021-02-22T14:44:41Z</time>
      </trkpt>
      <trkpt lat="44.56104" lon="2.50771">
        <ele>587</ele>
        <time>2021-02-22T14:44:50Z</time>
      </trkpt>
      <trkpt lat="44.56107" lon="2.5087">
        <ele>588</ele>
        <time>2021-02-22T14:45:07Z</time>
      </trkpt>
      <trkpt lat="44.56112" lon="2.50893">
        <ele>589</ele>
        <time>2021-02-22T14:45:11Z</time>
      </trkpt>
      <trkpt lat="44.5616" lon="2.51015">
        <ele>591</ele>
        <time>2021-02-22T14:45:34Z</time>
      </trkpt>
      <trkpt lat="44.56164" lon="2.51028">
        <ele>591</ele>
        <time>2021-02-22T14:45:36Z</time>
      </trkpt>
      <trkpt lat="44.56187" lon="2.51155">
        <ele>588</ele>
        <time>2021-02-22T14:45:58Z</time>
      </trkpt>
      <trkpt lat="44.56186" lon="2.51162">
        <ele>588</ele>
        <time>2021-02-22T14:45:59Z</time>
      </trkpt>
      <trkpt lat="44.56176" lon="2.51201">
        <ele>587</ele>
        <time>2021-02-22T14:46:06Z</time>
      </trkpt>
      <trkpt lat="44.56175" lon="2.51211">
        <ele>587</ele>
        <time>2021-02-22T14:46:08Z</time>
      </trkpt>
      <trkpt lat="44.56178" lon="2.51272">
        <ele>586</ele>
        <time>2021-02-22T14:46:18Z</time>
      </trkpt>
      <trkpt lat="44.56176" lon="2.51345">
        <ele>586</ele>
        <time>2021-02-22T14:46:30Z</time>
      </trkpt>
      <trkpt lat="44.56187" lon="2.5133">
        <ele>586</ele>
        <time>2021-02-22T14:46:34Z</time>
      </trkpt>
      <trkpt lat="44.56209" lon="2.51291">
        <ele>588</ele>
        <time>2021-02-22T14:46:42Z</time>
      </trkpt>
      <trkpt lat="44.56255" lon="2.51219">
        <ele>590</ele>
        <time>2021-02-22T14:46:58Z</time>
      </trkpt>
      <trkpt lat="44.56288" lon="2.51164">
        <ele>590</ele>
        <time>2021-02-22T14:47:10Z</time>
      </trkpt>
      <trkpt lat="44.56297" lon="2.51145">
        <ele>591</ele>
        <time>2021-02-22T14:47:14Z</time>
      </trkpt>
      <trkpt lat="44.56388" lon="2.50943">
        <ele>598</ele>
        <time>2021-02-22T14:47:53Z</time>
      </trkpt>
      <trkpt lat="44.56396" lon="2.50928">
        <ele>598</ele>
        <time>2021-02-22T14:47:57Z</time>
      </trkpt>
      <trkpt lat="44.56405" lon="2.50917">
        <ele>599</ele>
        <time>2021-02-22T14:47:59Z</time>
      </trkpt>
      <trkpt lat="44.56421" lon="2.50904">
        <ele>600</ele>
        <time>2021-02-22T14:48:04Z</time>
      </trkpt>
      <trkpt lat="44.56497" lon="2.50853">
        <ele>605</ele>
        <time>2021-02-22T14:48:23Z</time>
      </trkpt>
      <trkpt lat="44.56582" lon="2.5081">
        <ele>609</ele>
        <time>2021-02-22T14:48:44Z</time>
      </trkpt>
      <trkpt lat="44.56599" lon="2.50838">
        <ele>610</ele>
        <time>2021-02-22T14:48:51Z</time>
      </trkpt>
      <trkpt lat="44.56626" lon="2.50867">
        <ele>610</ele>
        <time>2021-02-22T14:48:58Z</time>
      </trkpt>
      <trkpt lat="44.56648" lon="2.50887">
        <ele>610</ele>
        <time>2021-02-22T14:49:05Z</time>
      </trkpt>
      <trkpt lat="44.56685" lon="2.50909">
        <ele>610</ele>
        <time>2021-02-22T14:49:14Z</time>
      </trkpt>
      <trkpt lat="44.56744" lon="2.50944">
        <ele>611</ele>
        <time>2021-02-22T14:49:29Z</time>
      </trkpt>
      <trkpt lat="44.56765" lon="2.50959">
        <ele>612</ele>
        <time>2021-02-22T14:49:34Z</time>
      </trkpt>
      <trkpt lat="44.56786" lon="2.50981">
        <ele>613</ele>
        <time>2021-02-22T14:49:41Z</time>
      </trkpt>
      <trkpt lat="44.56898" lon="2.51108">
        <ele>615</ele>
        <time>2021-02-22T14:50:14Z</time>
      </trkpt>
      <trkpt lat="44.56911" lon="2.51127">
        <ele>616</ele>
        <time>2021-02-22T14:50:19Z</time>
      </trkpt>
      <trkpt lat="44.57007" lon="2.51283">
        <ele>622</ele>
        <time>2021-02-22T14:50:53Z</time>
      </trkpt>
      <trkpt lat="44.57028" lon="2.51302">
        <ele>624</ele>
        <time>2021-02-22T14:50:59Z</time>
      </trkpt>
      <trkpt lat="44.57075" lon="2.51323">
        <ele>625</ele>
        <time>2021-02-22T14:51:10Z</time>
      </trkpt>
      <trkpt lat="44.57098" lon="2.51326">
        <ele>625</ele>
        <time>2021-02-22T14:51:16Z</time>
      </trkpt>
      <trkpt lat="44.57136" lon="2.51318">
        <ele>626</ele>
        <time>2021-02-22T14:51:25Z</time>
      </trkpt>
      <trkpt lat="44.5715" lon="2.51319">
        <ele>626</ele>
        <time>2021-02-22T14:51:28Z</time>
      </trkpt>
      <trkpt lat="44.57166" lon="2.51326">
        <ele>626</ele>
        <time>2021-02-22T14:51:32Z</time>
      </trkpt>
      <trkpt lat="44.57266" lon="2.51385">
        <ele>627</ele>
        <time>2021-02-22T14:51:57Z</time>
      </trkpt>
      <trkpt lat="44.57266" lon="2.51394">
        <ele>627</ele>
        <time>2021-02-22T14:51:59Z</time>
      </trkpt>
      <trkpt lat="44.57261" lon="2.51423">
        <ele>627</ele>
        <time>2021-02-22T14:52:04Z</time>
      </trkpt>
      <trkpt lat="44.57249" lon="2.51449">
        <ele>627</ele>
        <time>2021-02-22T14:52:09Z</time>
      </trkpt>
      <trkpt lat="44.57205" lon="2.51509">
        <ele>627</ele>
        <time>2021-02-22T14:52:23Z</time>
      </trkpt>
      <trkpt lat="44.57177" lon="2.51542">
        <ele>626</ele>
        <time>2021-02-22T14:52:32Z</time>
      </trkpt>
      <trkpt lat="44.57152" lon="2.51572">
        <ele>627</ele>
        <time>2021-02-22T14:52:39Z</time>
      </trkpt>
      <trkpt lat="44.57118" lon="2.51593">
        <ele>626</ele>
        <time>2021-02-22T14:52:48Z</time>
      </trkpt>
      <trkpt lat="44.57094" lon="2.51597">
        <ele>626</ele>
        <time>2021-02-22T14:52:54Z</time>
      </trkpt>
      <trkpt lat="44.57075" lon="2.51593">
        <ele>626</ele>
        <time>2021-02-22T14:52:58Z</time>
      </trkpt>
      <trkpt lat="44.57051" lon="2.51573">
        <ele>626</ele>
        <time>2021-02-22T14:53:05Z</time>
      </trkpt>
      <trkpt lat="44.57044" lon="2.51573">
        <ele>626</ele>
        <time>2021-02-22T14:53:06Z</time>
      </trkpt>
      <trkpt lat="44.5703" lon="2.51578">
        <ele>626</ele>
        <time>2021-02-22T14:53:10Z</time>
      </trkpt>
      <trkpt lat="44.56992" lon="2.516">
        <ele>625</ele>
        <time>2021-02-22T14:53:19Z</time>
      </trkpt>
      <trkpt lat="44.56978" lon="2.51616">
        <ele>623</ele>
        <time>2021-02-22T14:53:23Z</time>
      </trkpt>
      <trkpt lat="44.56968" lon="2.51641">
        <ele>622</ele>
        <time>2021-02-22T14:53:28Z</time>
      </trkpt>
      <trkpt lat="44.5694" lon="2.5174">
        <ele>615</ele>
        <time>2021-02-22T14:53:46Z</time>
      </trkpt>
      <trkpt lat="44.56939" lon="2.51761">
        <ele>614</ele>
        <time>2021-02-22T14:53:49Z</time>
      </trkpt>
      <trkpt lat="44.5694" lon="2.51784">
        <ele>613</ele>
        <time>2021-02-22T14:53:53Z</time>
      </trkpt>
      <trkpt lat="44.56948" lon="2.51843">
        <ele>610</ele>
        <time>2021-02-22T14:54:03Z</time>
      </trkpt>
      <trkpt lat="44.56947" lon="2.51867">
        <ele>610</ele>
        <time>2021-02-22T14:54:07Z</time>
      </trkpt>
      <trkpt lat="44.56943" lon="2.51902">
        <ele>611</ele>
        <time>2021-02-22T14:54:13Z</time>
      </trkpt>
      <trkpt lat="44.56936" lon="2.51936">
        <ele>611</ele>
        <time>2021-02-22T14:54:19Z</time>
      </trkpt>
      <trkpt lat="44.56926" lon="2.51978">
        <ele>613</ele>
        <time>2021-02-22T14:54:26Z</time>
      </trkpt>
      <trkpt lat="44.56916" lon="2.52006">
        <ele>613</ele>
        <time>2021-02-22T14:54:32Z</time>
      </trkpt>
      <trkpt lat="44.56901" lon="2.52039">
        <ele>615</ele>
        <time>2021-02-22T14:54:38Z</time>
      </trkpt>
      <trkpt lat="44.56859" lon="2.52098">
        <ele>615</ele>
        <time>2021-02-22T14:54:52Z</time>
      </trkpt>
      <trkpt lat="44.56803" lon="2.52136">
        <ele>610</ele>
        <time>2021-02-22T14:55:07Z</time>
      </trkpt>
      <trkpt lat="44.5678" lon="2.52143">
        <ele>609</ele>
        <time>2021-02-22T14:55:12Z</time>
      </trkpt>
      <trkpt lat="44.56754" lon="2.52161">
        <ele>609</ele>
        <time>2021-02-22T14:55:19Z</time>
      </trkpt>
      <trkpt lat="44.56726" lon="2.5219">
        <ele>607</ele>
        <time>2021-02-22T14:55:27Z</time>
      </trkpt>
      <trkpt lat="44.56699" lon="2.52225">
        <ele>605</ele>
        <time>2021-02-22T14:55:35Z</time>
      </trkpt>
      <trkpt lat="44.56686" lon="2.52262">
        <ele>605</ele>
        <time>2021-02-22T14:55:42Z</time>
      </trkpt>
      <trkpt lat="44.56679" lon="2.52307">
        <ele>603</ele>
        <time>2021-02-22T14:55:50Z</time>
      </trkpt>
      <trkpt lat="44.56673" lon="2.52357">
        <ele>603</ele>
        <time>2021-02-22T14:55:58Z</time>
      </trkpt>
      <trkpt lat="44.56665" lon="2.52396">
        <ele>603</ele>
        <time>2021-02-22T14:56:05Z</time>
      </trkpt>
      <trkpt lat="44.56647" lon="2.52431">
        <ele>602</ele>
        <time>2021-02-22T14:56:12Z</time>
      </trkpt>
      <trkpt lat="44.56611" lon="2.52475">
        <ele>602</ele>
        <time>2021-02-22T14:56:24Z</time>
      </trkpt>
      <trkpt lat="44.56538" lon="2.52557">
        <ele>601</ele>
        <time>2021-02-22T14:56:45Z</time>
      </trkpt>
      <trkpt lat="44.56514" lon="2.52573">
        <ele>602</ele>
        <time>2021-02-22T14:56:52Z</time>
      </trkpt>
      <trkpt lat="44.56488" lon="2.52586">
        <ele>602</ele>
        <time>2021-02-22T14:56:58Z</time>
      </trkpt>
      <trkpt lat="44.56435" lon="2.52594">
        <ele>601</ele>
        <time>2021-02-22T14:57:10Z</time>
      </trkpt>
      <trkpt lat="44.5636" lon="2.5264">
        <ele>598</ele>
        <time>2021-02-22T14:57:30Z</time>
      </trkpt>
      <trkpt lat="44.56284" lon="2.52691">
        <ele>598</ele>
        <time>2021-02-22T14:57:49Z</time>
      </trkpt>
      <trkpt lat="44.56269" lon="2.52705">
        <ele>598</ele>
        <time>2021-02-22T14:57:53Z</time>
      </trkpt>
      <trkpt lat="44.56235" lon="2.52777">
        <ele>599</ele>
        <time>2021-02-22T14:58:08Z</time>
      </trkpt>
      <trkpt lat="44.562" lon="2.52819">
        <ele>603</ele>
        <time>2021-02-22T14:58:19Z</time>
      </trkpt>
      <trkpt lat="44.56189" lon="2.52842">
        <ele>603</ele>
        <time>2021-02-22T14:58:23Z</time>
      </trkpt>
      <trkpt lat="44.5617" lon="2.52886">
        <ele>603</ele>
        <time>2021-02-22T14:58:32Z</time>
      </trkpt>
      <trkpt lat="44.56147" lon="2.52938">
        <ele>601</ele>
        <time>2021-02-22T14:58:42Z</time>
      </trkpt>
      <trkpt lat="44.56128" lon="2.52969">
        <ele>601</ele>
        <time>2021-02-22T14:58:49Z</time>
      </trkpt>
      <trkpt lat="44.56092" lon="2.5302">
        <ele>599</ele>
        <time>2021-02-22T14:59:01Z</time>
      </trkpt>
      <trkpt lat="44.56092" lon="2.53007">
        <ele>600</ele>
        <time>2021-02-22T14:59:03Z</time>
      </trkpt>
      <trkpt lat="44.56094" lon="2.53007">
        <ele>600</ele>
        <time>2021-02-22T14:59:03Z</time>
      </trkpt>
      <trkpt lat="44.56017" lon="2.53101">
        <ele>592</ele>
        <time>2021-02-22T14:59:27Z</time>
      </trkpt>
      <trkpt lat="44.56017" lon="2.53101">
        <ele>592</ele>
        <time>2021-02-22T14:59:27Z</time>
      </trkpt>
      <trkpt lat="44.5603" lon="2.53253">
        <ele>592</ele>
        <time>2021-02-22T14:59:53Z</time>
      </trkpt>
      <trkpt lat="44.56029" lon="2.53254">
        <ele>592</ele>
        <time>2021-02-22T14:59:53Z</time>
      </trkpt>
      <trkpt lat="44.56032" lon="2.5328">
        <ele>591</ele>
        <time>2021-02-22T14:59:57Z</time>
      </trkpt>
      <trkpt lat="44.56044" lon="2.53323">
        <ele>588</ele>
        <time>2021-02-22T15:00:05Z</time>
      </trkpt>
      <trkpt lat="44.56058" lon="2.53348">
        <ele>587</ele>
        <time>2021-02-22T15:00:10Z</time>
      </trkpt>
      <trkpt lat="44.56128" lon="2.53426">
        <ele>577</ele>
        <time>2021-02-22T15:00:31Z</time>
      </trkpt>
      <trkpt lat="44.56145" lon="2.53436">
        <ele>576</ele>
        <time>2021-02-22T15:00:35Z</time>
      </trkpt>
      <trkpt lat="44.56147" lon="2.53481">
        <ele>574</ele>
        <time>2021-02-22T15:00:43Z</time>
      </trkpt>
      <trkpt lat="44.56154" lon="2.53555">
        <ele>574</ele>
        <time>2021-02-22T15:00:55Z</time>
      </trkpt>
      <trkpt lat="44.56164" lon="2.53622">
        <ele>573</ele>
        <time>2021-02-22T15:01:07Z</time>
      </trkpt>
      <trkpt lat="44.56174" lon="2.53666">
        <ele>571</ele>
        <time>2021-02-22T15:01:14Z</time>
      </trkpt>
      <trkpt lat="44.56187" lon="2.53703">
        <ele>569</ele>
        <time>2021-02-22T15:01:21Z</time>
      </trkpt>
      <trkpt lat="44.56212" lon="2.53746">
        <ele>567</ele>
        <time>2021-02-22T15:01:31Z</time>
      </trkpt>
      <trkpt lat="44.56224" lon="2.53777">
        <ele>567</ele>
        <time>2021-02-22T15:01:36Z</time>
      </trkpt>
      <trkpt lat="44.5625" lon="2.53807">
        <ele>569</ele>
        <time>2021-02-22T15:01:44Z</time>
      </trkpt>
      <trkpt lat="44.56264" lon="2.53816">
        <ele>569</ele>
        <time>2021-02-22T15:01:48Z</time>
      </trkpt>
      <trkpt lat="44.56295" lon="2.53818">
        <ele>567</ele>
        <time>2021-02-22T15:01:55Z</time>
      </trkpt>
      <trkpt lat="44.56324" lon="2.53812">
        <ele>565</ele>
        <time>2021-02-22T15:02:02Z</time>
      </trkpt>
      <trkpt lat="44.56324" lon="2.53813">
        <ele>565</ele>
        <time>2021-02-22T15:02:02Z</time>
      </trkpt>
      <trkpt lat="44.56519" lon="2.54355">
        <ele>526</ele>
        <time>2021-02-22T15:03:43Z</time>
      </trkpt>
      <trkpt lat="44.56519" lon="2.54355">
        <ele>526</ele>
        <time>2021-02-22T15:03:43Z</time>
      </trkpt>
      <trkpt lat="44.56633" lon="2.54362">
        <ele>504</ele>
        <time>2021-02-22T15:04:10Z</time>
      </trkpt>
      <trkpt lat="44.56805" lon="2.54604">
        <ele>557</ele>
        <time>2021-02-22T15:05:07Z</time>
      </trkpt>
      <trkpt lat="44.56817" lon="2.54609">
        <ele>559</ele>
        <time>2021-02-22T15:05:10Z</time>
      </trkpt>
      <trkpt lat="44.56834" lon="2.54611">
        <ele>561</ele>
        <time>2021-02-22T15:05:14Z</time>
      </trkpt>
      <trkpt lat="44.5685" lon="2.54608">
        <ele>560</ele>
        <time>2021-02-22T15:05:17Z</time>
      </trkpt>
      <trkpt lat="44.56869" lon="2.54612">
        <ele>560</ele>
        <time>2021-02-22T15:05:22Z</time>
      </trkpt>
      <trkpt lat="44.56889" lon="2.54619">
        <ele>561</ele>
        <time>2021-02-22T15:05:27Z</time>
      </trkpt>
      <trkpt lat="44.56948" lon="2.54684">
        <ele>565</ele>
        <time>2021-02-22T15:05:44Z</time>
      </trkpt>
      <trkpt lat="44.56967" lon="2.5469">
        <ele>564</ele>
        <time>2021-02-22T15:05:49Z</time>
      </trkpt>
      <trkpt lat="44.56984" lon="2.54691">
        <ele>563</ele>
        <time>2021-02-22T15:05:53Z</time>
      </trkpt>
      <trkpt lat="44.56989" lon="2.54695">
        <ele>563</ele>
        <time>2021-02-22T15:05:54Z</time>
      </trkpt>
      <trkpt lat="44.56998" lon="2.5471">
        <ele>563</ele>
        <time>2021-02-22T15:05:57Z</time>
      </trkpt>
      <trkpt lat="44.57002" lon="2.54713">
        <ele>563</ele>
        <time>2021-02-22T15:05:58Z</time>
      </trkpt>
      <trkpt lat="44.57018" lon="2.54719">
        <ele>562</ele>
        <time>2021-02-22T15:06:02Z</time>
      </trkpt>
      <trkpt lat="44.57037" lon="2.54722">
        <ele>561</ele>
        <time>2021-02-22T15:06:07Z</time>
      </trkpt>
      <trkpt lat="44.57045" lon="2.54727">
        <ele>561</ele>
        <time>2021-02-22T15:06:09Z</time>
      </trkpt>
      <trkpt lat="44.57069" lon="2.5477">
        <ele>562</ele>
        <time>2021-02-22T15:06:18Z</time>
      </trkpt>
      <trkpt lat="44.57089" lon="2.54797">
        <ele>563</ele>
        <time>2021-02-22T15:06:24Z</time>
      </trkpt>
      <trkpt lat="44.57094" lon="2.54794">
        <ele>563</ele>
        <time>2021-02-22T15:06:26Z</time>
      </trkpt>
      <trkpt lat="44.57119" lon="2.5476">
        <ele>562</ele>
        <time>2021-02-22T15:06:34Z</time>
      </trkpt>
      <trkpt lat="44.5714" lon="2.54746">
        <ele>563</ele>
        <time>2021-02-22T15:06:39Z</time>
      </trkpt>
      <trkpt lat="44.57172" lon="2.54747">
        <ele>566</ele>
        <time>2021-02-22T15:06:47Z</time>
      </trkpt>
      <trkpt lat="44.57207" lon="2.54736">
        <ele>570</ele>
        <time>2021-02-22T15:06:55Z</time>
      </trkpt>
      <trkpt lat="44.57222" lon="2.54735">
        <ele>572</ele>
        <time>2021-02-22T15:06:58Z</time>
      </trkpt>
      <trkpt lat="44.57234" lon="2.54738">
        <ele>573</ele>
        <time>2021-02-22T15:07:01Z</time>
      </trkpt>
      <trkpt lat="44.57261" lon="2.54749">
        <ele>576</ele>
        <time>2021-02-22T15:07:08Z</time>
      </trkpt>
      <trkpt lat="44.57274" lon="2.5475">
        <ele>577</ele>
        <time>2021-02-22T15:07:11Z</time>
      </trkpt>
      <trkpt lat="44.57291" lon="2.54747">
        <ele>577</ele>
        <time>2021-02-22T15:07:15Z</time>
      </trkpt>
      <trkpt lat="44.57302" lon="2.54748">
        <ele>578</ele>
        <time>2021-02-22T15:07:18Z</time>
      </trkpt>
      <trkpt lat="44.57315" lon="2.54758">
        <ele>579</ele>
        <time>2021-02-22T15:07:21Z</time>
      </trkpt>
      <trkpt lat="44.57325" lon="2.54762">
        <ele>580</ele>
        <time>2021-02-22T15:07:23Z</time>
      </trkpt>
      <trkpt lat="44.57331" lon="2.54779">
        <ele>581</ele>
        <time>2021-02-22T15:07:27Z</time>
      </trkpt>
      <trkpt lat="44.57342" lon="2.54795">
        <ele>583</ele>
        <time>2021-02-22T15:07:30Z</time>
      </trkpt>
      <trkpt lat="44.57358" lon="2.54804">
        <ele>584</ele>
        <time>2021-02-22T15:07:34Z</time>
      </trkpt>
      <trkpt lat="44.57362" lon="2.54802">
        <ele>584</ele>
        <time>2021-02-22T15:07:35Z</time>
      </trkpt>
      <trkpt lat="44.57402" lon="2.54858">
        <ele>591</ele>
        <time>2021-02-22T15:07:48Z</time>
      </trkpt>
      <trkpt lat="44.5743" lon="2.54894">
        <ele>595</ele>
        <time>2021-02-22T15:07:57Z</time>
      </trkpt>
      <trkpt lat="44.57455" lon="2.54941">
        <ele>599</ele>
        <time>2021-02-22T15:08:07Z</time>
      </trkpt>
      <trkpt lat="44.57467" lon="2.54981">
        <ele>601</ele>
        <time>2021-02-22T15:08:14Z</time>
      </trkpt>
      <trkpt lat="44.5748" lon="2.55063">
        <ele>606</ele>
        <time>2021-02-22T15:08:28Z</time>
      </trkpt>
      <trkpt lat="44.57483" lon="2.55109">
        <ele>606</ele>
        <time>2021-02-22T15:08:36Z</time>
      </trkpt>
      <trkpt lat="44.57556" lon="2.55155">
        <ele>610</ele>
        <time>2021-02-22T15:08:55Z</time>
      </trkpt>
      <trkpt lat="44.57619" lon="2.55206">
        <ele>614</ele>
        <time>2021-02-22T15:09:12Z</time>
      </trkpt>
      <trkpt lat="44.57659" lon="2.55246">
        <ele>618</ele>
        <time>2021-02-22T15:09:23Z</time>
      </trkpt>
      <trkpt lat="44.57683" lon="2.55276">
        <ele>619</ele>
        <time>2021-02-22T15:09:31Z</time>
      </trkpt>
      <trkpt lat="44.57688" lon="2.55303">
        <ele>619</ele>
        <time>2021-02-22T15:09:35Z</time>
      </trkpt>
      <trkpt lat="44.57683" lon="2.55308">
        <ele>619</ele>
        <time>2021-02-22T15:09:37Z</time>
      </trkpt>
      <trkpt lat="44.57675" lon="2.55332">
        <ele>618</ele>
        <time>2021-02-22T15:09:41Z</time>
      </trkpt>
      <trkpt lat="44.57667" lon="2.55361">
        <ele>617</ele>
        <time>2021-02-22T15:09:46Z</time>
      </trkpt>
      <trkpt lat="44.5766" lon="2.55405">
        <ele>617</ele>
        <time>2021-02-22T15:09:54Z</time>
      </trkpt>
      <trkpt lat="44.57656" lon="2.55448">
        <ele>616</ele>
        <time>2021-02-22T15:10:01Z</time>
      </trkpt>
      <trkpt lat="44.57659" lon="2.5548">
        <ele>616</ele>
        <time>2021-02-22T15:10:06Z</time>
      </trkpt>
      <trkpt lat="44.57664" lon="2.55503">
        <ele>616</ele>
        <time>2021-02-22T15:10:10Z</time>
      </trkpt>
      <trkpt lat="44.57667" lon="2.55519">
        <ele>617</ele>
        <time>2021-02-22T15:10:13Z</time>
      </trkpt>
      <trkpt lat="44.57673" lon="2.55588">
        <ele>617</ele>
        <time>2021-02-22T15:10:25Z</time>
      </trkpt>
      <trkpt lat="44.57682" lon="2.55636">
        <ele>618</ele>
        <time>2021-02-22T15:10:33Z</time>
      </trkpt>
      <trkpt lat="44.57684" lon="2.55655">
        <ele>618</ele>
        <time>2021-02-22T15:10:36Z</time>
      </trkpt>
      <trkpt lat="44.57681" lon="2.55675">
        <ele>618</ele>
        <time>2021-02-22T15:10:40Z</time>
      </trkpt>
      <trkpt lat="44.57655" lon="2.55738">
        <ele>621</ele>
        <time>2021-02-22T15:10:52Z</time>
      </trkpt>
      <trkpt lat="44.57638" lon="2.55771">
        <ele>622</ele>
        <time>2021-02-22T15:10:58Z</time>
      </trkpt>
      <trkpt lat="44.57622" lon="2.55785">
        <ele>621</ele>
        <time>2021-02-22T15:11:03Z</time>
      </trkpt>
      <trkpt lat="44.57603" lon="2.558">
        <ele>621</ele>
        <time>2021-02-22T15:11:08Z</time>
      </trkpt>
      <trkpt lat="44.57594" lon="2.55819">
        <ele>621</ele>
        <time>2021-02-22T15:11:12Z</time>
      </trkpt>
      <trkpt lat="44.57592" lon="2.55838">
        <ele>622</ele>
        <time>2021-02-22T15:11:15Z</time>
      </trkpt>
      <trkpt lat="44.57595" lon="2.55854">
        <ele>622</ele>
        <time>2021-02-22T15:11:18Z</time>
      </trkpt>
      <trkpt lat="44.576" lon="2.55869">
        <ele>622</ele>
        <time>2021-02-22T15:11:20Z</time>
      </trkpt>
      <trkpt lat="44.57651" lon="2.55901">
        <ele>624</ele>
        <time>2021-02-22T15:11:33Z</time>
      </trkpt>
      <trkpt lat="44.57653" lon="2.55923">
        <ele>623</ele>
        <time>2021-02-22T15:11:37Z</time>
      </trkpt>
      <trkpt lat="44.57648" lon="2.55932">
        <ele>622</ele>
        <time>2021-02-22T15:11:39Z</time>
      </trkpt>
      <trkpt lat="44.5764" lon="2.55953">
        <ele>621</ele>
        <time>2021-02-22T15:11:43Z</time>
      </trkpt>
      <trkpt lat="44.57632" lon="2.55985">
        <ele>619</ele>
        <time>2021-02-22T15:11:49Z</time>
      </trkpt>
      <trkpt lat="44.57626" lon="2.55998">
        <ele>618</ele>
        <time>2021-02-22T15:11:51Z</time>
      </trkpt>
      <trkpt lat="44.57594" lon="2.56044">
        <ele>614</ele>
        <time>2021-02-22T15:12:02Z</time>
      </trkpt>
      <trkpt lat="44.57574" lon="2.56059">
        <ele>613</ele>
        <time>2021-02-22T15:12:07Z</time>
      </trkpt>
      <trkpt lat="44.57556" lon="2.56076">
        <ele>611</ele>
        <time>2021-02-22T15:12:12Z</time>
      </trkpt>
      <trkpt lat="44.5755" lon="2.56088">
        <ele>610</ele>
        <time>2021-02-22T15:12:15Z</time>
      </trkpt>
      <trkpt lat="44.57544" lon="2.56127">
        <ele>611</ele>
        <time>2021-02-22T15:12:21Z</time>
      </trkpt>
      <trkpt lat="44.57538" lon="2.56147">
        <ele>611</ele>
        <time>2021-02-22T15:12:25Z</time>
      </trkpt>
      <trkpt lat="44.57511" lon="2.56212">
        <ele>614</ele>
        <time>2021-02-22T15:12:37Z</time>
      </trkpt>
      <trkpt lat="44.57501" lon="2.5623">
        <ele>614</ele>
        <time>2021-02-22T15:12:41Z</time>
      </trkpt>
      <trkpt lat="44.57467" lon="2.56275">
        <ele>619</ele>
        <time>2021-02-22T15:12:52Z</time>
      </trkpt>
      <trkpt lat="44.57459" lon="2.5629">
        <ele>620</ele>
        <time>2021-02-22T15:12:55Z</time>
      </trkpt>
      <trkpt lat="44.57451" lon="2.56317">
        <ele>622</ele>
        <time>2021-02-22T15:13:00Z</time>
      </trkpt>
      <trkpt lat="44.5744" lon="2.5634">
        <ele>623</ele>
        <time>2021-02-22T15:13:05Z</time>
      </trkpt>
      <trkpt lat="44.57431" lon="2.56354">
        <ele>624</ele>
        <time>2021-02-22T15:13:08Z</time>
      </trkpt>
      <trkpt lat="44.57397" lon="2.56386">
        <ele>624</ele>
        <time>2021-02-22T15:13:17Z</time>
      </trkpt>
      <trkpt lat="44.57392" lon="2.56397">
        <ele>625</ele>
        <time>2021-02-22T15:13:20Z</time>
      </trkpt>
      <trkpt lat="44.57388" lon="2.56409">
        <ele>625</ele>
        <time>2021-02-22T15:13:22Z</time>
      </trkpt>
      <trkpt lat="44.5737" lon="2.56535">
        <ele>632</ele>
        <time>2021-02-22T15:13:43Z</time>
      </trkpt>
      <trkpt lat="44.57343" lon="2.56628">
        <ele>632</ele>
        <time>2021-02-22T15:14:00Z</time>
      </trkpt>
      <trkpt lat="44.57338" lon="2.56634">
        <ele>632</ele>
        <time>2021-02-22T15:14:01Z</time>
      </trkpt>
      <trkpt lat="44.57332" lon="2.56637">
        <ele>631</ele>
        <time>2021-02-22T15:14:03Z</time>
      </trkpt>
      <trkpt lat="44.57326" lon="2.56636">
        <ele>632</ele>
        <time>2021-02-22T15:14:04Z</time>
      </trkpt>
      <trkpt lat="44.57305" lon="2.56627">
        <ele>632</ele>
        <time>2021-02-22T15:14:09Z</time>
      </trkpt>
      <trkpt lat="44.57298" lon="2.56628">
        <ele>632</ele>
        <time>2021-02-22T15:14:11Z</time>
      </trkpt>
      <trkpt lat="44.57292" lon="2.56632">
        <ele>633</ele>
        <time>2021-02-22T15:14:13Z</time>
      </trkpt>
      <trkpt lat="44.57272" lon="2.56653">
        <ele>636</ele>
        <time>2021-02-22T15:14:19Z</time>
      </trkpt>
      <trkpt lat="44.57261" lon="2.56661">
        <ele>637</ele>
        <time>2021-02-22T15:14:21Z</time>
      </trkpt>
      <trkpt lat="44.57237" lon="2.56672">
        <ele>640</ele>
        <time>2021-02-22T15:14:27Z</time>
      </trkpt>
      <trkpt lat="44.57227" lon="2.56679">
        <ele>641</ele>
        <time>2021-02-22T15:14:30Z</time>
      </trkpt>
      <trkpt lat="44.57224" lon="2.56689">
        <ele>641</ele>
        <time>2021-02-22T15:14:32Z</time>
      </trkpt>
      <trkpt lat="44.57227" lon="2.56696">
        <ele>642</ele>
        <time>2021-02-22T15:14:33Z</time>
      </trkpt>
      <trkpt lat="44.57249" lon="2.56723">
        <ele>642</ele>
        <time>2021-02-22T15:14:40Z</time>
      </trkpt>
      <trkpt lat="44.57254" lon="2.56737">
        <ele>643</ele>
        <time>2021-02-22T15:14:43Z</time>
      </trkpt>
      <trkpt lat="44.57261" lon="2.56791">
        <ele>645</ele>
        <time>2021-02-22T15:14:52Z</time>
      </trkpt>
      <trkpt lat="44.57261" lon="2.5688">
        <ele>650</ele>
        <time>2021-02-22T15:15:06Z</time>
      </trkpt>
      <trkpt lat="44.57256" lon="2.56911">
        <ele>652</ele>
        <time>2021-02-22T15:15:12Z</time>
      </trkpt>
      <trkpt lat="44.57196" lon="2.57143">
        <ele>656</ele>
        <time>2021-02-22T15:15:53Z</time>
      </trkpt>
      <trkpt lat="44.57197" lon="2.57166">
        <ele>655</ele>
        <time>2021-02-22T15:15:57Z</time>
      </trkpt>
      <trkpt lat="44.57156" lon="2.5713">
        <ele>655</ele>
        <time>2021-02-22T15:16:08Z</time>
      </trkpt>
      <trkpt lat="44.57087" lon="2.5706">
        <ele>652</ele>
        <time>2021-02-22T15:16:28Z</time>
      </trkpt>
      <trkpt lat="44.5707" lon="2.57034">
        <ele>651</ele>
        <time>2021-02-22T15:16:34Z</time>
      </trkpt>
      <trkpt lat="44.57049" lon="2.56993">
        <ele>650</ele>
        <time>2021-02-22T15:16:42Z</time>
      </trkpt>
      <trkpt lat="44.57034" lon="2.56956">
        <ele>651</ele>
        <time>2021-02-22T15:16:49Z</time>
      </trkpt>
      <trkpt lat="44.56959" lon="2.57069">
        <ele>645</ele>
        <time>2021-02-22T15:17:15Z</time>
      </trkpt>
      <trkpt lat="44.56939" lon="2.57096">
        <ele>644</ele>
        <time>2021-02-22T15:17:21Z</time>
      </trkpt>
      <trkpt lat="44.56898" lon="2.57128">
        <ele>645</ele>
        <time>2021-02-22T15:17:32Z</time>
      </trkpt>
      <trkpt lat="44.56869" lon="2.57145">
        <ele>646</ele>
        <time>2021-02-22T15:17:40Z</time>
      </trkpt>
      <trkpt lat="44.56863" lon="2.57153">
        <ele>646</ele>
        <time>2021-02-22T15:17:42Z</time>
      </trkpt>
      <trkpt lat="44.56848" lon="2.57184">
        <ele>647</ele>
        <time>2021-02-22T15:17:48Z</time>
      </trkpt>
      <trkpt lat="44.5683" lon="2.57205">
        <ele>647</ele>
        <time>2021-02-22T15:17:53Z</time>
      </trkpt>
      <trkpt lat="44.56676" lon="2.57326">
        <ele>652</ele>
        <time>2021-02-22T15:18:34Z</time>
      </trkpt>
      <trkpt lat="44.56648" lon="2.57354">
        <ele>652</ele>
        <time>2021-02-22T15:18:43Z</time>
      </trkpt>
      <trkpt lat="44.56588" lon="2.57423">
        <ele>651</ele>
        <time>2021-02-22T15:19:01Z</time>
      </trkpt>
      <trkpt lat="44.56559" lon="2.57446">
        <ele>649</ele>
        <time>2021-02-22T15:19:08Z</time>
      </trkpt>
      <trkpt lat="44.56538" lon="2.57459">
        <ele>648</ele>
        <time>2021-02-22T15:19:14Z</time>
      </trkpt>
      <trkpt lat="44.56513" lon="2.5747">
        <ele>646</ele>
        <time>2021-02-22T15:19:20Z</time>
      </trkpt>
      <trkpt lat="44.56438" lon="2.57489">
        <ele>643</ele>
        <time>2021-02-22T15:19:38Z</time>
      </trkpt>
      <trkpt lat="44.56287" lon="2.57549">
        <ele>635</ele>
        <time>2021-02-22T15:20:14Z</time>
      </trkpt>
      <trkpt lat="44.56279" lon="2.57554">
        <ele>635</ele>
        <time>2021-02-22T15:20:16Z</time>
      </trkpt>
      <trkpt lat="44.56276" lon="2.57563">
        <ele>635</ele>
        <time>2021-02-22T15:20:18Z</time>
      </trkpt>
      <trkpt lat="44.56275" lon="2.57608">
        <ele>635</ele>
        <time>2021-02-22T15:20:26Z</time>
      </trkpt>
      <trkpt lat="44.56268" lon="2.57715">
        <ele>632</ele>
        <time>2021-02-22T15:20:43Z</time>
      </trkpt>
      <trkpt lat="44.56264" lon="2.57724">
        <ele>631</ele>
        <time>2021-02-22T15:20:45Z</time>
      </trkpt>
      <trkpt lat="44.56196" lon="2.57783">
        <ele>629</ele>
        <time>2021-02-22T15:21:04Z</time>
      </trkpt>
      <trkpt lat="44.56168" lon="2.57801">
        <ele>627</ele>
        <time>2021-02-22T15:21:11Z</time>
      </trkpt>
      <trkpt lat="44.5608" lon="2.57843">
        <ele>626</ele>
        <time>2021-02-22T15:21:33Z</time>
      </trkpt>
      <trkpt lat="44.56086" lon="2.57882">
        <ele>627</ele>
        <time>2021-02-22T15:21:39Z</time>
      </trkpt>
      <trkpt lat="44.56094" lon="2.57903">
        <ele>627</ele>
        <time>2021-02-22T15:21:43Z</time>
      </trkpt>
      <trkpt lat="44.56104" lon="2.57923">
        <ele>628</ele>
        <time>2021-02-22T15:21:47Z</time>
      </trkpt>
      <trkpt lat="44.56231" lon="2.58121">
        <ele>635</ele>
        <time>2021-02-22T15:22:32Z</time>
      </trkpt>
      <trkpt lat="44.56252" lon="2.58146">
        <ele>636</ele>
        <time>2021-02-22T15:22:38Z</time>
      </trkpt>
      <trkpt lat="44.56233" lon="2.58211">
        <ele>632</ele>
        <time>2021-02-22T15:22:50Z</time>
      </trkpt>
      <trkpt lat="44.56222" lon="2.5823">
        <ele>631</ele>
        <time>2021-02-22T15:22:54Z</time>
      </trkpt>
      <trkpt lat="44.56175" lon="2.58288">
        <ele>626</ele>
        <time>2021-02-22T15:23:09Z</time>
      </trkpt>
      <trkpt lat="44.56114" lon="2.58315">
        <ele>622</ele>
        <time>2021-02-22T15:23:23Z</time>
      </trkpt>
      <trkpt lat="44.56024" lon="2.58368">
        <ele>617</ele>
        <time>2021-02-22T15:23:46Z</time>
      </trkpt>
      <trkpt lat="44.55943" lon="2.58446">
        <ele>612</ele>
        <time>2021-02-22T15:24:09Z</time>
      </trkpt>
      <trkpt lat="44.55892" lon="2.58484">
        <ele>610</ele>
        <time>2021-02-22T15:24:23Z</time>
      </trkpt>
      <trkpt lat="44.55837" lon="2.58534">
        <ele>607</ele>
        <time>2021-02-22T15:24:38Z</time>
      </trkpt>
      <trkpt lat="44.55816" lon="2.58559">
        <ele>607</ele>
        <time>2021-02-22T15:24:44Z</time>
      </trkpt>
      <trkpt lat="44.55781" lon="2.58586">
        <ele>608</ele>
        <time>2021-02-22T15:24:54Z</time>
      </trkpt>
      <trkpt lat="44.55733" lon="2.58594">
        <ele>606</ele>
        <time>2021-02-22T15:25:05Z</time>
      </trkpt>
      <trkpt lat="44.55701" lon="2.58608">
        <ele>603</ele>
        <time>2021-02-22T15:25:13Z</time>
      </trkpt>
      <trkpt lat="44.55634" lon="2.58658">
        <ele>603</ele>
        <time>2021-02-22T15:25:31Z</time>
      </trkpt>
      <trkpt lat="44.55596" lon="2.58697">
        <ele>600</ele>
        <time>2021-02-22T15:25:42Z</time>
      </trkpt>
      <trkpt lat="44.55563" lon="2.58769">
        <ele>594</ele>
        <time>2021-02-22T15:25:56Z</time>
      </trkpt>
      <trkpt lat="44.55555" lon="2.58801">
        <ele>593</ele>
        <time>2021-02-22T15:26:01Z</time>
      </trkpt>
      <trkpt lat="44.5556" lon="2.58851">
        <ele>594</ele>
        <time>2021-02-22T15:26:10Z</time>
      </trkpt>
      <trkpt lat="44.55563" lon="2.58867">
        <ele>593</ele>
        <time>2021-02-22T15:26:13Z</time>
      </trkpt>
      <trkpt lat="44.5557" lon="2.58877">
        <ele>594</ele>
        <time>2021-02-22T15:26:15Z</time>
      </trkpt>
      <trkpt lat="44.5558" lon="2.58883">
        <ele>595</ele>
        <time>2021-02-22T15:26:17Z</time>
      </trkpt>
      <trkpt lat="44.5559" lon="2.58885">
        <ele>594</ele>
        <time>2021-02-22T15:26:20Z</time>
      </trkpt>
      <trkpt lat="44.55612" lon="2.58877">
        <ele>592</ele>
        <time>2021-02-22T15:26:25Z</time>
      </trkpt>
      <trkpt lat="44.55623" lon="2.58875">
        <ele>591</ele>
        <time>2021-02-22T15:26:28Z</time>
      </trkpt>
      <trkpt lat="44.55633" lon="2.58879">
        <ele>589</ele>
        <time>2021-02-22T15:26:30Z</time>
      </trkpt>
      <trkpt lat="44.5564" lon="2.58885">
        <ele>588</ele>
        <time>2021-02-22T15:26:32Z</time>
      </trkpt>
      <trkpt lat="44.55658" lon="2.58931">
        <ele>581</ele>
        <time>2021-02-22T15:26:41Z</time>
      </trkpt>
      <trkpt lat="44.55663" lon="2.58937">
        <ele>580</ele>
        <time>2021-02-22T15:26:42Z</time>
      </trkpt>
      <trkpt lat="44.55669" lon="2.58941">
        <ele>578</ele>
        <time>2021-02-22T15:26:44Z</time>
      </trkpt>
      <trkpt lat="44.55692" lon="2.58938">
        <ele>577</ele>
        <time>2021-02-22T15:26:49Z</time>
      </trkpt>
      <trkpt lat="44.55702" lon="2.58932">
        <ele>576</ele>
        <time>2021-02-22T15:26:52Z</time>
      </trkpt>
      <trkpt lat="44.55711" lon="2.58929">
        <ele>575</ele>
        <time>2021-02-22T15:26:54Z</time>
      </trkpt>
      <trkpt lat="44.55719" lon="2.5892">
        <ele>574</ele>
        <time>2021-02-22T15:26:56Z</time>
      </trkpt>
      <trkpt lat="44.55732" lon="2.58891">
        <ele>574</ele>
        <time>2021-02-22T15:27:02Z</time>
      </trkpt>
      <trkpt lat="44.55736" lon="2.58871">
        <ele>575</ele>
        <time>2021-02-22T15:27:06Z</time>
      </trkpt>
      <trkpt lat="44.55739" lon="2.58861">
        <ele>575</ele>
        <time>2021-02-22T15:27:07Z</time>
      </trkpt>
      <trkpt lat="44.55753" lon="2.58844">
        <ele>575</ele>
        <time>2021-02-22T15:27:12Z</time>
      </trkpt>
      <trkpt lat="44.55767" lon="2.58821">
        <ele>578</ele>
        <time>2021-02-22T15:27:17Z</time>
      </trkpt>
      <trkpt lat="44.55782" lon="2.58788">
        <ele>583</ele>
        <time>2021-02-22T15:27:23Z</time>
      </trkpt>
      <trkpt lat="44.55802" lon="2.58766">
        <ele>584</ele>
        <time>2021-02-22T15:27:29Z</time>
      </trkpt>
      <trkpt lat="44.55826" lon="2.58743">
        <ele>584</ele>
        <time>2021-02-22T15:27:36Z</time>
      </trkpt>
      <trkpt lat="44.55843" lon="2.58732">
        <ele>585</ele>
        <time>2021-02-22T15:27:40Z</time>
      </trkpt>
      <trkpt lat="44.55853" lon="2.58736">
        <ele>585</ele>
        <time>2021-02-22T15:27:43Z</time>
      </trkpt>
      <trkpt lat="44.55855" lon="2.58747">
        <ele>585</ele>
        <time>2021-02-22T15:27:45Z</time>
      </trkpt>
      <trkpt lat="44.55848" lon="2.58771">
        <ele>584</ele>
        <time>2021-02-22T15:27:49Z</time>
      </trkpt>
      <trkpt lat="44.55842" lon="2.58797">
        <ele>584</ele>
        <time>2021-02-22T15:27:54Z</time>
      </trkpt>
      <trkpt lat="44.55843" lon="2.58809">
        <ele>585</ele>
        <time>2021-02-22T15:27:56Z</time>
      </trkpt>
      <trkpt lat="44.55858" lon="2.58837">
        <ele>589</ele>
        <time>2021-02-22T15:28:01Z</time>
      </trkpt>
      <trkpt lat="44.55822" lon="2.58885">
        <ele>586</ele>
        <time>2021-02-22T15:28:13Z</time>
      </trkpt>
      <trkpt lat="44.5581" lon="2.58905">
        <ele>585</ele>
        <time>2021-02-22T15:28:17Z</time>
      </trkpt>
      <trkpt lat="44.5579" lon="2.5895">
        <ele>583</ele>
        <time>2021-02-22T15:28:26Z</time>
      </trkpt>
      <trkpt lat="44.55771" lon="2.58984">
        <ele>581</ele>
        <time>2021-02-22T15:28:33Z</time>
      </trkpt>
      <trkpt lat="44.55751" lon="2.59014">
        <ele>578</ele>
        <time>2021-02-22T15:28:40Z</time>
      </trkpt>
      <trkpt lat="44.55765" lon="2.59009">
        <ele>581</ele>
        <time>2021-02-22T15:28:44Z</time>
      </trkpt>
      <trkpt lat="44.55807" lon="2.58987">
        <ele>588</ele>
        <time>2021-02-22T15:28:54Z</time>
      </trkpt>
      <trkpt lat="44.55823" lon="2.58969">
        <ele>591</ele>
        <time>2021-02-22T15:28:59Z</time>
      </trkpt>
      <trkpt lat="44.55847" lon="2.5896">
        <ele>595</ele>
        <time>2021-02-22T15:29:05Z</time>
      </trkpt>
      <trkpt lat="44.55874" lon="2.58959">
        <ele>600</ele>
        <time>2021-02-22T15:29:11Z</time>
      </trkpt>
      <trkpt lat="44.55887" lon="2.58961">
        <ele>602</ele>
        <time>2021-02-22T15:29:14Z</time>
      </trkpt>
      <trkpt lat="44.55897" lon="2.58959">
        <ele>604</ele>
        <time>2021-02-22T15:29:16Z</time>
      </trkpt>
      <trkpt lat="44.55948" lon="2.58936">
        <ele>613</ele>
        <time>2021-02-22T15:29:29Z</time>
      </trkpt>
      <trkpt lat="44.55988" lon="2.58902">
        <ele>620</ele>
        <time>2021-02-22T15:29:40Z</time>
      </trkpt>
      <trkpt lat="44.56009" lon="2.58892">
        <ele>623</ele>
        <time>2021-02-22T15:29:45Z</time>
      </trkpt>
      <trkpt lat="44.56031" lon="2.58886">
        <ele>625</ele>
        <time>2021-02-22T15:29:50Z</time>
      </trkpt>
      <trkpt lat="44.56055" lon="2.58876">
        <ele>627</ele>
        <time>2021-02-22T15:29:56Z</time>
      </trkpt>
      <trkpt lat="44.56077" lon="2.58876">
        <ele>628</ele>
        <time>2021-02-22T15:30:01Z</time>
      </trkpt>
      <trkpt lat="44.5609" lon="2.58888">
        <ele>630</ele>
        <time>2021-02-22T15:30:05Z</time>
      </trkpt>
      <trkpt lat="44.56133" lon="2.58939">
        <ele>635</ele>
        <time>2021-02-22T15:30:18Z</time>
      </trkpt>
      <trkpt lat="44.56153" lon="2.58948">
        <ele>637</ele>
        <time>2021-02-22T15:30:23Z</time>
      </trkpt>
      <trkpt lat="44.56214" lon="2.59024">
        <ele>643</ele>
        <time>2021-02-22T15:30:42Z</time>
      </trkpt>
      <trkpt lat="44.56228" lon="2.59035">
        <ele>644</ele>
        <time>2021-02-22T15:30:46Z</time>
      </trkpt>
      <trkpt lat="44.56305" lon="2.59072">
        <ele>649</ele>
        <time>2021-02-22T15:31:05Z</time>
      </trkpt>
      <trkpt lat="44.56332" lon="2.59087">
        <ele>652</ele>
        <time>2021-02-22T15:31:11Z</time>
      </trkpt>
      <trkpt lat="44.56389" lon="2.59102">
        <ele>653</ele>
        <time>2021-02-22T15:31:25Z</time>
      </trkpt>
      <trkpt lat="44.56421" lon="2.59099">
        <ele>653</ele>
        <time>2021-02-22T15:31:32Z</time>
      </trkpt>
      <trkpt lat="44.56432" lon="2.59097">
        <ele>652</ele>
        <time>2021-02-22T15:31:35Z</time>
      </trkpt>
      <trkpt lat="44.56443" lon="2.59102">
        <ele>651</ele>
        <time>2021-02-22T15:31:38Z</time>
      </trkpt>
      <trkpt lat="44.56485" lon="2.59146">
        <ele>649</ele>
        <time>2021-02-22T15:31:50Z</time>
      </trkpt>
      <trkpt lat="44.56508" lon="2.59148">
        <ele>648</ele>
        <time>2021-02-22T15:31:55Z</time>
      </trkpt>
      <trkpt lat="44.56516" lon="2.59155">
        <ele>648</ele>
        <time>2021-02-22T15:31:58Z</time>
      </trkpt>
      <trkpt lat="44.56527" lon="2.59158">
        <ele>648</ele>
        <time>2021-02-22T15:32:00Z</time>
      </trkpt>
      <trkpt lat="44.56545" lon="2.59156">
        <ele>648</ele>
        <time>2021-02-22T15:32:04Z</time>
      </trkpt>
      <trkpt lat="44.56598" lon="2.59137">
        <ele>648</ele>
        <time>2021-02-22T15:32:17Z</time>
      </trkpt>
      <trkpt lat="44.56618" lon="2.59134">
        <ele>649</ele>
        <time>2021-02-22T15:32:22Z</time>
      </trkpt>
      <trkpt lat="44.56688" lon="2.59127">
        <ele>651</ele>
        <time>2021-02-22T15:32:38Z</time>
      </trkpt>
      <trkpt lat="44.56772" lon="2.59134">
        <ele>653</ele>
        <time>2021-02-22T15:32:58Z</time>
      </trkpt>
      <trkpt lat="44.56776" lon="2.5914">
        <ele>653</ele>
        <time>2021-02-22T15:32:59Z</time>
      </trkpt>
      <trkpt lat="44.56711" lon="2.59209">
        <ele>650</ele>
        <time>2021-02-22T15:33:18Z</time>
      </trkpt>
      <trkpt lat="44.56668" lon="2.59258">
        <ele>647</ele>
        <time>2021-02-22T15:33:31Z</time>
      </trkpt>
      <trkpt lat="44.56621" lon="2.59321">
        <ele>639</ele>
        <time>2021-02-22T15:33:46Z</time>
      </trkpt>
      <trkpt lat="44.56541" lon="2.59439">
        <ele>630</ele>
        <time>2021-02-22T15:34:14Z</time>
      </trkpt>
      <trkpt lat="44.56536" lon="2.59464">
        <ele>627</ele>
        <time>2021-02-22T15:34:18Z</time>
      </trkpt>
      <trkpt lat="44.56539" lon="2.59549">
        <ele>622</ele>
        <time>2021-02-22T15:34:32Z</time>
      </trkpt>
      <trkpt lat="44.56552" lon="2.59572">
        <ele>622</ele>
        <time>2021-02-22T15:34:37Z</time>
      </trkpt>
      <trkpt lat="44.5657" lon="2.59586">
        <ele>623</ele>
        <time>2021-02-22T15:34:42Z</time>
      </trkpt>
      <trkpt lat="44.56581" lon="2.59587">
        <ele>624</ele>
        <time>2021-02-22T15:34:44Z</time>
      </trkpt>
      <trkpt lat="44.56593" lon="2.59579">
        <ele>624</ele>
        <time>2021-02-22T15:34:47Z</time>
      </trkpt>
      <trkpt lat="44.56607" lon="2.59551">
        <ele>626</ele>
        <time>2021-02-22T15:34:53Z</time>
      </trkpt>
      <trkpt lat="44.56618" lon="2.59546">
        <ele>627</ele>
        <time>2021-02-22T15:34:56Z</time>
      </trkpt>
      <trkpt lat="44.56636" lon="2.59583">
        <ele>625</ele>
        <time>2021-02-22T15:35:03Z</time>
      </trkpt>
      <trkpt lat="44.56639" lon="2.59593">
        <ele>625</ele>
        <time>2021-02-22T15:35:05Z</time>
      </trkpt>
      <trkpt lat="44.56635" lon="2.59608">
        <ele>625</ele>
        <time>2021-02-22T15:35:08Z</time>
      </trkpt>
      <trkpt lat="44.56609" lon="2.59641">
        <ele>623</ele>
        <time>2021-02-22T15:35:16Z</time>
      </trkpt>
      <trkpt lat="44.56578" lon="2.59696">
        <ele>622</ele>
        <time>2021-02-22T15:35:28Z</time>
      </trkpt>
      <trkpt lat="44.56566" lon="2.59703">
        <ele>623</ele>
        <time>2021-02-22T15:35:31Z</time>
      </trkpt>
      <trkpt lat="44.56477" lon="2.59677">
        <ele>618</ele>
        <time>2021-02-22T15:35:52Z</time>
      </trkpt>
      <trkpt lat="44.56442" lon="2.59687">
        <ele>618</ele>
        <time>2021-02-22T15:36:00Z</time>
      </trkpt>
      <trkpt lat="44.56425" lon="2.59697">
        <ele>618</ele>
        <time>2021-02-22T15:36:04Z</time>
      </trkpt>
      <trkpt lat="44.56407" lon="2.59715">
        <ele>619</ele>
        <time>2021-02-22T15:36:10Z</time>
      </trkpt>
      <trkpt lat="44.5638" lon="2.59785">
        <ele>619</ele>
        <time>2021-02-22T15:36:23Z</time>
      </trkpt>
      <trkpt lat="44.56373" lon="2.59827">
        <ele>619</ele>
        <time>2021-02-22T15:36:30Z</time>
      </trkpt>
      <trkpt lat="44.56317" lon="2.5989">
        <ele>616</ele>
        <time>2021-02-22T15:36:47Z</time>
      </trkpt>
      <trkpt lat="44.56265" lon="2.59924">
        <ele>615</ele>
        <time>2021-02-22T15:37:00Z</time>
      </trkpt>
      <trkpt lat="44.56202" lon="2.59934">
        <ele>621</ele>
        <time>2021-02-22T15:37:15Z</time>
      </trkpt>
      <trkpt lat="44.56192" lon="2.5993">
        <ele>622</ele>
        <time>2021-02-22T15:37:17Z</time>
      </trkpt>
      <trkpt lat="44.56185" lon="2.59925">
        <ele>622</ele>
        <time>2021-02-22T15:37:19Z</time>
      </trkpt>
      <trkpt lat="44.56142" lon="2.5987">
        <ele>620</ele>
        <time>2021-02-22T15:37:33Z</time>
      </trkpt>
      <trkpt lat="44.56115" lon="2.59847">
        <ele>621</ele>
        <time>2021-02-22T15:37:40Z</time>
      </trkpt>
      <trkpt lat="44.56092" lon="2.59837">
        <ele>625</ele>
        <time>2021-02-22T15:37:46Z</time>
      </trkpt>
      <trkpt lat="44.5602" lon="2.59835">
        <ele>628</ele>
        <time>2021-02-22T15:38:03Z</time>
      </trkpt>
      <trkpt lat="44.55981" lon="2.5981">
        <ele>627</ele>
        <time>2021-02-22T15:38:13Z</time>
      </trkpt>
      <trkpt lat="44.5594" lon="2.59787">
        <ele>624</ele>
        <time>2021-02-22T15:38:23Z</time>
      </trkpt>
      <trkpt lat="44.55928" lon="2.59783">
        <ele>624</ele>
        <time>2021-02-22T15:38:26Z</time>
      </trkpt>
      <trkpt lat="44.55898" lon="2.59776">
        <ele>621</ele>
        <time>2021-02-22T15:38:33Z</time>
      </trkpt>
      <trkpt lat="44.55873" lon="2.59777">
        <ele>618</ele>
        <time>2021-02-22T15:38:39Z</time>
      </trkpt>
      <trkpt lat="44.55679" lon="2.59808">
        <ele>600</ele>
        <time>2021-02-22T15:39:24Z</time>
      </trkpt>
      <trkpt lat="44.55609" lon="2.59822">
        <ele>597</ele>
        <time>2021-02-22T15:39:41Z</time>
      </trkpt>
      <trkpt lat="44.55571" lon="2.59803">
        <ele>595</ele>
        <time>2021-02-22T15:39:50Z</time>
      </trkpt>
      <trkpt lat="44.55534" lon="2.59781">
        <ele>594</ele>
        <time>2021-02-22T15:40:00Z</time>
      </trkpt>
      <trkpt lat="44.55385" lon="2.59636">
        <ele>592</ele>
        <time>2021-02-22T15:40:42Z</time>
      </trkpt>
      <trkpt lat="44.55379" lon="2.5963">
        <ele>592</ele>
        <time>2021-02-22T15:40:44Z</time>
      </trkpt>
      <trkpt lat="44.55356" lon="2.59621">
        <ele>591</ele>
        <time>2021-02-22T15:40:49Z</time>
      </trkpt>
      <trkpt lat="44.55346" lon="2.59622">
        <ele>590</ele>
        <time>2021-02-22T15:40:52Z</time>
      </trkpt>
      <trkpt lat="44.55336" lon="2.59626">
        <ele>590</ele>
        <time>2021-02-22T15:40:54Z</time>
      </trkpt>
      <trkpt lat="44.55323" lon="2.59637">
        <ele>589</ele>
        <time>2021-02-22T15:40:58Z</time>
      </trkpt>
      <trkpt lat="44.55316" lon="2.59638">
        <ele>588</ele>
        <time>2021-02-22T15:40:59Z</time>
      </trkpt>
      <trkpt lat="44.55291" lon="2.59658">
        <ele>584</ele>
        <time>2021-02-22T15:41:06Z</time>
      </trkpt>
      <trkpt lat="44.55316" lon="2.59638">
        <ele>588</ele>
        <time>2021-02-22T15:41:13Z</time>
      </trkpt>
      <trkpt lat="44.55323" lon="2.59637">
        <ele>589</ele>
        <time>2021-02-22T15:41:14Z</time>
      </trkpt>
      <trkpt lat="44.55307" lon="2.59659">
        <ele>587</ele>
        <time>2021-02-22T15:41:20Z</time>
      </trkpt>
      <trkpt lat="44.55292" lon="2.59688">
        <ele>585</ele>
        <time>2021-02-22T15:41:26Z</time>
      </trkpt>
      <trkpt lat="44.55282" lon="2.59722">
        <ele>585</ele>
        <time>2021-02-22T15:41:32Z</time>
      </trkpt>
      <trkpt lat="44.55275" lon="2.59758">
        <ele>585</ele>
        <time>2021-02-22T15:41:38Z</time>
      </trkpt>
      <trkpt lat="44.55276" lon="2.59897">
        <ele>581</ele>
        <time>2021-02-22T15:42:01Z</time>
      </trkpt>
      <trkpt lat="44.55274" lon="2.59948">
        <ele>580</ele>
        <time>2021-02-22T15:42:10Z</time>
      </trkpt>
      <trkpt lat="44.55264" lon="2.60007">
        <ele>578</ele>
        <time>2021-02-22T15:42:20Z</time>
      </trkpt>
      <trkpt lat="44.55218" lon="2.60013">
        <ele>575</ele>
        <time>2021-02-22T15:42:30Z</time>
      </trkpt>
      <trkpt lat="44.55198" lon="2.60012">
        <ele>574</ele>
        <time>2021-02-22T15:42:35Z</time>
      </trkpt>
      <trkpt lat="44.55181" lon="2.6001">
        <ele>573</ele>
        <time>2021-02-22T15:42:39Z</time>
      </trkpt>
      <trkpt lat="44.55151" lon="2.60001">
        <ele>573</ele>
        <time>2021-02-22T15:42:46Z</time>
      </trkpt>
      <trkpt lat="44.55065" lon="2.59972">
        <ele>577</ele>
        <time>2021-02-22T15:43:07Z</time>
      </trkpt>
      <trkpt lat="44.55015" lon="2.59955">
        <ele>581</ele>
        <time>2021-02-22T15:43:19Z</time>
      </trkpt>
      <trkpt lat="44.54984" lon="2.59951">
        <ele>583</ele>
        <time>2021-02-22T15:43:26Z</time>
      </trkpt>
      <trkpt lat="44.54952" lon="2.59956">
        <ele>584</ele>
        <time>2021-02-22T15:43:34Z</time>
      </trkpt>
      <trkpt lat="44.5494" lon="2.5996">
        <ele>585</ele>
        <time>2021-02-22T15:43:37Z</time>
      </trkpt>
      <trkpt lat="44.54907" lon="2.59983">
        <ele>586</ele>
        <time>2021-02-22T15:43:45Z</time>
      </trkpt>
      <trkpt lat="44.54893" lon="2.59994">
        <ele>586</ele>
        <time>2021-02-22T15:43:49Z</time>
      </trkpt>
      <trkpt lat="44.54879" lon="2.60008">
        <ele>585</ele>
        <time>2021-02-22T15:43:53Z</time>
      </trkpt>
      <trkpt lat="44.54834" lon="2.60047">
        <ele>583</ele>
        <time>2021-02-22T15:44:05Z</time>
      </trkpt>
      <trkpt lat="44.54812" lon="2.60062">
        <ele>583</ele>
        <time>2021-02-22T15:44:11Z</time>
      </trkpt>
      <trkpt lat="44.54805" lon="2.60067">
        <ele>583</ele>
        <time>2021-02-22T15:44:13Z</time>
      </trkpt>
      <trkpt lat="44.54738" lon="2.60095">
        <ele>584</ele>
        <time>2021-02-22T15:44:29Z</time>
      </trkpt>
      <trkpt lat="44.54552" lon="2.60159">
        <ele>570</ele>
        <time>2021-02-22T15:45:14Z</time>
      </trkpt>
      <trkpt lat="44.54525" lon="2.60166">
        <ele>570</ele>
        <time>2021-02-22T15:45:20Z</time>
      </trkpt>
      <trkpt lat="44.5452" lon="2.60167">
        <ele>570</ele>
        <time>2021-02-22T15:45:21Z</time>
      </trkpt>
      <trkpt lat="44.54496" lon="2.60167">
        <ele>570</ele>
        <time>2021-02-22T15:45:27Z</time>
      </trkpt>
      <trkpt lat="44.54478" lon="2.60163">
        <ele>571</ele>
        <time>2021-02-22T15:45:31Z</time>
      </trkpt>
      <trkpt lat="44.54449" lon="2.60149">
        <ele>572</ele>
        <time>2021-02-22T15:45:39Z</time>
      </trkpt>
      <trkpt lat="44.54438" lon="2.60141">
        <ele>572</ele>
        <time>2021-02-22T15:45:41Z</time>
      </trkpt>
      <trkpt lat="44.54422" lon="2.6013">
        <ele>573</ele>
        <time>2021-02-22T15:45:46Z</time>
      </trkpt>
      <trkpt lat="44.54396" lon="2.60118">
        <ele>571</ele>
        <time>2021-02-22T15:45:52Z</time>
      </trkpt>
      <trkpt lat="44.54387" lon="2.60116">
        <ele>570</ele>
        <time>2021-02-22T15:45:54Z</time>
      </trkpt>
      <trkpt lat="44.54374" lon="2.60113">
        <ele>570</ele>
        <time>2021-02-22T15:45:57Z</time>
      </trkpt>
      <trkpt lat="44.54321" lon="2.60115">
        <ele>567</ele>
        <time>2021-02-22T15:46:10Z</time>
      </trkpt>
      <trkpt lat="44.54307" lon="2.60116">
        <ele>566</ele>
        <time>2021-02-22T15:46:13Z</time>
      </trkpt>
      <trkpt lat="44.54288" lon="2.60121">
        <ele>564</ele>
        <time>2021-02-22T15:46:17Z</time>
      </trkpt>
      <trkpt lat="44.54265" lon="2.60133">
        <ele>562</ele>
        <time>2021-02-22T15:46:23Z</time>
      </trkpt>
      <trkpt lat="44.54227" lon="2.60166">
        <ele>560</ele>
        <time>2021-02-22T15:46:34Z</time>
      </trkpt>
      <trkpt lat="44.54204" lon="2.60183">
        <ele>559</ele>
        <time>2021-02-22T15:46:40Z</time>
      </trkpt>
      <trkpt lat="44.54192" lon="2.6019">
        <ele>558</ele>
        <time>2021-02-22T15:46:43Z</time>
      </trkpt>
      <trkpt lat="44.54148" lon="2.602">
        <ele>557</ele>
        <time>2021-02-22T15:46:53Z</time>
      </trkpt>
      <trkpt lat="44.54108" lon="2.60202">
        <ele>558</ele>
        <time>2021-02-22T15:47:02Z</time>
      </trkpt>
      <trkpt lat="44.54086" lon="2.60211">
        <ele>558</ele>
        <time>2021-02-22T15:47:08Z</time>
      </trkpt>
      <trkpt lat="44.54063" lon="2.60227">
        <ele>559</ele>
        <time>2021-02-22T15:47:14Z</time>
      </trkpt>
      <trkpt lat="44.54058" lon="2.60212">
        <ele>559</ele>
        <time>2021-02-22T15:47:16Z</time>
      </trkpt>
      <trkpt lat="44.54052" lon="2.60199">
        <ele>559</ele>
        <time>2021-02-22T15:47:19Z</time>
      </trkpt>
      <trkpt lat="44.54049" lon="2.60183">
        <ele>560</ele>
        <time>2021-02-22T15:47:22Z</time>
      </trkpt>
      <trkpt lat="44.5405" lon="2.60165">
        <ele>559</ele>
        <time>2021-02-22T15:47:25Z</time>
      </trkpt>
      <trkpt lat="44.54055" lon="2.60149">
        <ele>558</ele>
        <time>2021-02-22T15:47:28Z</time>
      </trkpt>
      <trkpt lat="44.54112" lon="2.60051">
        <ele>552</ele>
        <time>2021-02-22T15:47:49Z</time>
      </trkpt>
      <trkpt lat="44.54124" lon="2.60023">
        <ele>551</ele>
        <time>2021-02-22T15:47:54Z</time>
      </trkpt>
      <trkpt lat="44.54133" lon="2.59993">
        <ele>550</ele>
        <time>2021-02-22T15:48:00Z</time>
      </trkpt>
      <trkpt lat="44.54141" lon="2.59959">
        <ele>549</ele>
        <time>2021-02-22T15:48:06Z</time>
      </trkpt>
      <trkpt lat="44.54142" lon="2.59927">
        <ele>549</ele>
        <time>2021-02-22T15:48:11Z</time>
      </trkpt>
      <trkpt lat="44.5414" lon="2.59862">
        <ele>550</ele>
        <time>2021-02-22T15:48:22Z</time>
      </trkpt>
      <trkpt lat="44.5414" lon="2.59795">
        <ele>551</ele>
        <time>2021-02-22T15:48:33Z</time>
      </trkpt>
      <trkpt lat="44.54143" lon="2.59777">
        <ele>551</ele>
        <time>2021-02-22T15:48:36Z</time>
      </trkpt>
      <trkpt lat="44.54146" lon="2.59766">
        <ele>551</ele>
        <time>2021-02-22T15:48:38Z</time>
      </trkpt>
      <trkpt lat="44.54152" lon="2.59756">
        <ele>551</ele>
        <time>2021-02-22T15:48:40Z</time>
      </trkpt>
      <trkpt lat="44.5416" lon="2.59749">
        <ele>552</ele>
        <time>2021-02-22T15:48:42Z</time>
      </trkpt>
      <trkpt lat="44.54179" lon="2.59735">
        <ele>551</ele>
        <time>2021-02-22T15:48:47Z</time>
      </trkpt>
      <trkpt lat="44.54265" lon="2.59676">
        <ele>548</ele>
        <time>2021-02-22T15:49:10Z</time>
      </trkpt>
      <trkpt lat="44.5427" lon="2.59668">
        <ele>547</ele>
        <time>2021-02-22T15:49:11Z</time>
      </trkpt>
      <trkpt lat="44.54285" lon="2.59581">
        <ele>536</ele>
        <time>2021-02-22T15:49:26Z</time>
      </trkpt>
      <trkpt lat="44.54279" lon="2.59578">
        <ele>535</ele>
        <time>2021-02-22T15:49:28Z</time>
      </trkpt>
      <trkpt lat="44.54271" lon="2.59596">
        <ele>537</ele>
        <time>2021-02-22T15:49:31Z</time>
      </trkpt>
      <trkpt lat="44.54265" lon="2.59616">
        <ele>540</ele>
        <time>2021-02-22T15:49:35Z</time>
      </trkpt>
      <trkpt lat="44.54259" lon="2.59626">
        <ele>541</ele>
        <time>2021-02-22T15:49:37Z</time>
      </trkpt>
      <trkpt lat="44.54253" lon="2.5963">
        <ele>541</ele>
        <time>2021-02-22T15:49:39Z</time>
      </trkpt>
      <trkpt lat="44.54247" lon="2.5963">
        <ele>541</ele>
        <time>2021-02-22T15:49:40Z</time>
      </trkpt>
      <trkpt lat="44.54239" lon="2.59625">
        <ele>539</ele>
        <time>2021-02-22T15:49:42Z</time>
      </trkpt>
      <trkpt lat="44.54224" lon="2.5962">
        <ele>535</ele>
        <time>2021-02-22T15:49:46Z</time>
      </trkpt>
      <trkpt lat="44.54212" lon="2.5962">
        <ele>533</ele>
        <time>2021-02-22T15:49:49Z</time>
      </trkpt>
      <trkpt lat="44.54191" lon="2.59623">
        <ele>530</ele>
        <time>2021-02-22T15:49:53Z</time>
      </trkpt>
      <trkpt lat="44.54166" lon="2.59639">
        <ele>531</ele>
        <time>2021-02-22T15:50:00Z</time>
      </trkpt>
      <trkpt lat="44.54149" lon="2.59645">
        <ele>533</ele>
        <time>2021-02-22T15:50:04Z</time>
      </trkpt>
      <trkpt lat="44.54127" lon="2.59648">
        <ele>534</ele>
        <time>2021-02-22T15:50:09Z</time>
      </trkpt>
      <trkpt lat="44.54112" lon="2.5964">
        <ele>533</ele>
        <time>2021-02-22T15:50:13Z</time>
      </trkpt>
      <trkpt lat="44.54101" lon="2.59637">
        <ele>533</ele>
        <time>2021-02-22T15:50:16Z</time>
      </trkpt>
      <trkpt lat="44.54092" lon="2.59613">
        <ele>530</ele>
        <time>2021-02-22T15:50:20Z</time>
      </trkpt>
      <trkpt lat="44.54088" lon="2.59571">
        <ele>524</ele>
        <time>2021-02-22T15:50:27Z</time>
      </trkpt>
      <trkpt lat="44.54087" lon="2.59537">
        <ele>519</ele>
        <time>2021-02-22T15:50:33Z</time>
      </trkpt>
      <trkpt lat="44.54078" lon="2.59514">
        <ele>517</ele>
        <time>2021-02-22T15:50:37Z</time>
      </trkpt>
      <trkpt lat="44.54074" lon="2.59471">
        <ele>510</ele>
        <time>2021-02-22T15:50:44Z</time>
      </trkpt>
      <trkpt lat="44.5407" lon="2.59459">
        <ele>509</ele>
        <time>2021-02-22T15:50:47Z</time>
      </trkpt>
      <trkpt lat="44.54064" lon="2.59456">
        <ele>510</ele>
        <time>2021-02-22T15:50:48Z</time>
      </trkpt>
      <trkpt lat="44.54034" lon="2.59452">
        <ele>516</ele>
        <time>2021-02-22T15:50:55Z</time>
      </trkpt>
      <trkpt lat="44.54014" lon="2.5944">
        <ele>517</ele>
        <time>2021-02-22T15:51:00Z</time>
      </trkpt>
      <trkpt lat="44.54004" lon="2.59423">
        <ele>515</ele>
        <time>2021-02-22T15:51:04Z</time>
      </trkpt>
      <trkpt lat="44.54" lon="2.59403">
        <ele>511</ele>
        <time>2021-02-22T15:51:07Z</time>
      </trkpt>
      <trkpt lat="44.53999" lon="2.59348">
        <ele>501</ele>
        <time>2021-02-22T15:51:16Z</time>
      </trkpt>
      <trkpt lat="44.53974" lon="2.59308">
        <ele>507</ele>
        <time>2021-02-22T15:51:25Z</time>
      </trkpt>
      <trkpt lat="44.53971" lon="2.59287">
        <ele>505</ele>
        <time>2021-02-22T15:51:29Z</time>
      </trkpt>
      <trkpt lat="44.53981" lon="2.59261">
        <ele>499</ele>
        <time>2021-02-22T15:51:34Z</time>
      </trkpt>
      <trkpt lat="44.53999" lon="2.59236">
        <ele>491</ele>
        <time>2021-02-22T15:51:40Z</time>
      </trkpt>
      <trkpt lat="44.54001" lon="2.59222">
        <ele>489</ele>
        <time>2021-02-22T15:51:42Z</time>
      </trkpt>
      <trkpt lat="44.53999" lon="2.59199">
        <ele>487</ele>
        <time>2021-02-22T15:51:46Z</time>
      </trkpt>
      <trkpt lat="44.5399" lon="2.59172">
        <ele>485</ele>
        <time>2021-02-22T15:51:51Z</time>
      </trkpt>
      <trkpt lat="44.5398" lon="2.59169">
        <ele>486</ele>
        <time>2021-02-22T15:51:53Z</time>
      </trkpt>
      <trkpt lat="44.53968" lon="2.59176">
        <ele>489</ele>
        <time>2021-02-22T15:51:56Z</time>
      </trkpt>
      <trkpt lat="44.53949" lon="2.59195">
        <ele>496</ele>
        <time>2021-02-22T15:52:02Z</time>
      </trkpt>
      <trkpt lat="44.5393" lon="2.59191">
        <ele>499</ele>
        <time>2021-02-22T15:52:06Z</time>
      </trkpt>
      <trkpt lat="44.53905" lon="2.59155">
        <ele>498</ele>
        <time>2021-02-22T15:52:15Z</time>
      </trkpt>
      <trkpt lat="44.53892" lon="2.59142">
        <ele>501</ele>
        <time>2021-02-22T15:52:18Z</time>
      </trkpt>
      <trkpt lat="44.5389" lon="2.59127">
        <ele>500</ele>
        <time>2021-02-22T15:52:21Z</time>
      </trkpt>
      <trkpt lat="44.53892" lon="2.59111">
        <ele>497</ele>
        <time>2021-02-22T15:52:24Z</time>
      </trkpt>
      <trkpt lat="44.53872" lon="2.59087">
        <ele>502</ele>
        <time>2021-02-22T15:52:30Z</time>
      </trkpt>
      <trkpt lat="44.53869" lon="2.59081">
        <ele>503</ele>
        <time>2021-02-22T15:52:31Z</time>
      </trkpt>
      <trkpt lat="44.53875" lon="2.5906">
        <ele>499</ele>
        <time>2021-02-22T15:52:35Z</time>
      </trkpt>
      <trkpt lat="44.53891" lon="2.59033">
        <ele>491</ele>
        <time>2021-02-22T15:52:41Z</time>
      </trkpt>
      <trkpt lat="44.53913" lon="2.59001">
        <ele>481</ele>
        <time>2021-02-22T15:52:48Z</time>
      </trkpt>
      <trkpt lat="44.53911" lon="2.58991">
        <ele>483</ele>
        <time>2021-02-22T15:52:50Z</time>
      </trkpt>
      <trkpt lat="44.53901" lon="2.58981">
        <ele>487</ele>
        <time>2021-02-22T15:52:53Z</time>
      </trkpt>
      <trkpt lat="44.53881" lon="2.58972">
        <ele>496</ele>
        <time>2021-02-22T15:52:57Z</time>
      </trkpt>
      <trkpt lat="44.5388" lon="2.58963">
        <ele>497</ele>
        <time>2021-02-22T15:52:59Z</time>
      </trkpt>
      <trkpt lat="44.53915" lon="2.58884">
        <ele>493</ele>
        <time>2021-02-22T15:53:14Z</time>
      </trkpt>
      <trkpt lat="44.53959" lon="2.58832">
        <ele>492</ele>
        <time>2021-02-22T15:53:28Z</time>
      </trkpt>
      <trkpt lat="44.53978" lon="2.58825">
        <ele>488</ele>
        <time>2021-02-22T15:53:32Z</time>
      </trkpt>
      <trkpt lat="44.53995" lon="2.5881">
        <ele>486</ele>
        <time>2021-02-22T15:53:37Z</time>
      </trkpt>
      <trkpt lat="44.54008" lon="2.58792">
        <ele>483</ele>
        <time>2021-02-22T15:53:41Z</time>
      </trkpt>
      <trkpt lat="44.5401" lon="2.58777">
        <ele>483</ele>
        <time>2021-02-22T15:53:44Z</time>
      </trkpt>
      <trkpt lat="44.54012" lon="2.58765">
        <ele>484</ele>
        <time>2021-02-22T15:53:46Z</time>
      </trkpt>
      <trkpt lat="44.53995" lon="2.58735">
        <ele>491</ele>
        <time>2021-02-22T15:53:52Z</time>
      </trkpt>
      <trkpt lat="44.5399" lon="2.58713">
        <ele>492</ele>
        <time>2021-02-22T15:53:56Z</time>
      </trkpt>
      <trkpt lat="44.53987" lon="2.58678">
        <ele>491</ele>
        <time>2021-02-22T15:54:02Z</time>
      </trkpt>
      <trkpt lat="44.5397" lon="2.58565">
        <ele>484</ele>
        <time>2021-02-22T15:54:21Z</time>
      </trkpt>
      <trkpt lat="44.5395" lon="2.58488">
        <ele>486</ele>
        <time>2021-02-22T15:54:35Z</time>
      </trkpt>
      <trkpt lat="44.53948" lon="2.58432">
        <ele>479</ele>
        <time>2021-02-22T15:54:44Z</time>
      </trkpt>
      <trkpt lat="44.53961" lon="2.58378">
        <ele>463</ele>
        <time>2021-02-22T15:54:54Z</time>
      </trkpt>
      <trkpt lat="44.53958" lon="2.58356">
        <ele>460</ele>
        <time>2021-02-22T15:54:58Z</time>
      </trkpt>
      <trkpt lat="44.53954" lon="2.58342">
        <ele>458</ele>
        <time>2021-02-22T15:55:00Z</time>
      </trkpt>
      <trkpt lat="44.53944" lon="2.58336">
        <ele>460</ele>
        <time>2021-02-22T15:55:03Z</time>
      </trkpt>
      <trkpt lat="44.53923" lon="2.58336">
        <ele>467</ele>
        <time>2021-02-22T15:55:07Z</time>
      </trkpt>
      <trkpt lat="44.53882" lon="2.58346">
        <ele>475</ele>
        <time>2021-02-22T15:55:17Z</time>
      </trkpt>
      <trkpt lat="44.53853" lon="2.58365">
        <ele>484</ele>
        <time>2021-02-22T15:55:25Z</time>
      </trkpt>
      <trkpt lat="44.53843" lon="2.58368">
        <ele>486</ele>
        <time>2021-02-22T15:55:27Z</time>
      </trkpt>
      <trkpt lat="44.53807" lon="2.58313">
        <ele>482</ele>
        <time>2021-02-22T15:55:39Z</time>
      </trkpt>
      <trkpt lat="44.53797" lon="2.58281">
        <ele>482</ele>
        <time>2021-02-22T15:55:45Z</time>
      </trkpt>
      <trkpt lat="44.53789" lon="2.58258">
        <ele>483</ele>
        <time>2021-02-22T15:55:50Z</time>
      </trkpt>
      <trkpt lat="44.53807" lon="2.58194">
        <ele>471</ele>
        <time>2021-02-22T15:56:01Z</time>
      </trkpt>
      <trkpt lat="44.53836" lon="2.58102">
        <ele>457</ele>
        <time>2021-02-22T15:56:18Z</time>
      </trkpt>
      <trkpt lat="44.5385" lon="2.58033">
        <ele>446</ele>
        <time>2021-02-22T15:56:30Z</time>
      </trkpt>
      <trkpt lat="44.53849" lon="2.57979">
        <ele>440</ele>
        <time>2021-02-22T15:56:39Z</time>
      </trkpt>
      <trkpt lat="44.53854" lon="2.57938">
        <ele>427</ele>
        <time>2021-02-22T15:56:46Z</time>
      </trkpt>
      <trkpt lat="44.53849" lon="2.57923">
        <ele>426</ele>
        <time>2021-02-22T15:56:48Z</time>
      </trkpt>
      <trkpt lat="44.53838" lon="2.57913">
        <ele>428</ele>
        <time>2021-02-22T15:56:51Z</time>
      </trkpt>
      <trkpt lat="44.53813" lon="2.57914">
        <ele>434</ele>
        <time>2021-02-22T15:56:57Z</time>
      </trkpt>
      <trkpt lat="44.53769" lon="2.57871">
        <ele>428</ele>
        <time>2021-02-22T15:57:10Z</time>
      </trkpt>
      <trkpt lat="44.53745" lon="2.57877">
        <ele>434</ele>
        <time>2021-02-22T15:57:15Z</time>
      </trkpt>
      <trkpt lat="44.53709" lon="2.5787">
        <ele>438</ele>
        <time>2021-02-22T15:57:24Z</time>
      </trkpt>
      <trkpt lat="44.53683" lon="2.57873">
        <ele>443</ele>
        <time>2021-02-22T15:57:30Z</time>
      </trkpt>
      <trkpt lat="44.53673" lon="2.57876">
        <ele>445</ele>
        <time>2021-02-22T15:57:32Z</time>
      </trkpt>
      <trkpt lat="44.53661" lon="2.57854">
        <ele>443</ele>
        <time>2021-02-22T15:57:37Z</time>
      </trkpt>
      <trkpt lat="44.53663" lon="2.5781">
        <ele>440</ele>
        <time>2021-02-22T15:57:44Z</time>
      </trkpt>
      <trkpt lat="44.53678" lon="2.5778">
        <ele>438</ele>
        <time>2021-02-22T15:57:51Z</time>
      </trkpt>
      <trkpt lat="44.53703" lon="2.57714">
        <ele>440</ele>
        <time>2021-02-22T15:58:03Z</time>
      </trkpt>
      <trkpt lat="44.53717" lon="2.57693">
        <ele>440</ele>
        <time>2021-02-22T15:58:08Z</time>
      </trkpt>
      <trkpt lat="44.5375" lon="2.57663">
        <ele>432</ele>
        <time>2021-02-22T15:58:17Z</time>
      </trkpt>
      <trkpt lat="44.53758" lon="2.57642">
        <ele>428</ele>
        <time>2021-02-22T15:58:21Z</time>
      </trkpt>
      <trkpt lat="44.53754" lon="2.5762">
        <ele>429</ele>
        <time>2021-02-22T15:58:25Z</time>
      </trkpt>
      <trkpt lat="44.53724" lon="2.57556">
        <ele>436</ele>
        <time>2021-02-22T15:58:37Z</time>
      </trkpt>
      <trkpt lat="44.537" lon="2.57551">
        <ele>445</ele>
        <time>2021-02-22T15:58:43Z</time>
      </trkpt>
      <trkpt lat="44.53667" lon="2.57524">
        <ele>455</ele>
        <time>2021-02-22T15:58:52Z</time>
      </trkpt>
      <trkpt lat="44.53658" lon="2.57493">
        <ele>453</ele>
        <time>2021-02-22T15:58:58Z</time>
      </trkpt>
      <trkpt lat="44.53653" lon="2.5739">
        <ele>447</ele>
        <time>2021-02-22T15:59:15Z</time>
      </trkpt>
      <trkpt lat="44.53655" lon="2.57344">
        <ele>445</ele>
        <time>2021-02-22T15:59:22Z</time>
      </trkpt>
      <trkpt lat="44.53643" lon="2.57335">
        <ele>445</ele>
        <time>2021-02-22T15:59:26Z</time>
      </trkpt>
      <trkpt lat="44.53641" lon="2.57319">
        <ele>444</ele>
        <time>2021-02-22T15:59:28Z</time>
      </trkpt>
      <trkpt lat="44.53634" lon="2.57298">
        <ele>442</ele>
        <time>2021-02-22T15:59:32Z</time>
      </trkpt>
      <trkpt lat="44.53634" lon="2.57282">
        <ele>441</ele>
        <time>2021-02-22T15:59:35Z</time>
      </trkpt>
      <trkpt lat="44.53641" lon="2.57258">
        <ele>439</ele>
        <time>2021-02-22T15:59:39Z</time>
      </trkpt>
      <trkpt lat="44.53647" lon="2.57227">
        <ele>436</ele>
        <time>2021-02-22T15:59:45Z</time>
      </trkpt>
      <trkpt lat="44.53646" lon="2.57202">
        <ele>433</ele>
        <time>2021-02-22T15:59:49Z</time>
      </trkpt>
      <trkpt lat="44.53648" lon="2.5718">
        <ele>431</ele>
        <time>2021-02-22T15:59:52Z</time>
      </trkpt>
      <trkpt lat="44.53655" lon="2.57135">
        <ele>425</ele>
        <time>2021-02-22T16:00:00Z</time>
      </trkpt>
      <trkpt lat="44.53667" lon="2.57078">
        <ele>418</ele>
        <time>2021-02-22T16:00:10Z</time>
      </trkpt>
      <trkpt lat="44.53664" lon="2.57052">
        <ele>414</ele>
        <time>2021-02-22T16:00:14Z</time>
      </trkpt>
      <trkpt lat="44.53632" lon="2.56999">
        <ele>404</ele>
        <time>2021-02-22T16:00:26Z</time>
      </trkpt>
      <trkpt lat="44.53603" lon="2.56929">
        <ele>395</ele>
        <time>2021-02-22T16:00:39Z</time>
      </trkpt>
      <trkpt lat="44.53592" lon="2.56886">
        <ele>390</ele>
        <time>2021-02-22T16:00:47Z</time>
      </trkpt>
      <trkpt lat="44.53587" lon="2.5686">
        <ele>386</ele>
        <time>2021-02-22T16:00:51Z</time>
      </trkpt>
      <trkpt lat="44.53591" lon="2.56827">
        <ele>381</ele>
        <time>2021-02-22T16:00:57Z</time>
      </trkpt>
      <trkpt lat="44.53589" lon="2.56813">
        <ele>380</ele>
        <time>2021-02-22T16:00:59Z</time>
      </trkpt>
      <trkpt lat="44.53585" lon="2.56806">
        <ele>381</ele>
        <time>2021-02-22T16:01:01Z</time>
      </trkpt>
      <trkpt lat="44.53581" lon="2.56773">
        <ele>378</ele>
        <time>2021-02-22T16:01:06Z</time>
      </trkpt>
      <trkpt lat="44.53574" lon="2.5675">
        <ele>373</ele>
        <time>2021-02-22T16:01:11Z</time>
      </trkpt>
      <trkpt lat="44.53583" lon="2.56742">
        <ele>375</ele>
        <time>2021-02-22T16:01:13Z</time>
      </trkpt>
      <trkpt lat="44.5359" lon="2.56743">
        <ele>373</ele>
        <time>2021-02-22T16:01:15Z</time>
      </trkpt>
      <trkpt lat="44.53598" lon="2.56765">
        <ele>373</ele>
        <time>2021-02-22T16:01:19Z</time>
      </trkpt>
      <trkpt lat="44.53606" lon="2.56777">
        <ele>371</ele>
        <time>2021-02-22T16:01:22Z</time>
      </trkpt>
      <trkpt lat="44.53611" lon="2.56771">
        <ele>369</ele>
        <time>2021-02-22T16:01:23Z</time>
      </trkpt>
      <trkpt lat="44.53614" lon="2.56743">
        <ele>363</ele>
        <time>2021-02-22T16:01:28Z</time>
      </trkpt>
      <trkpt lat="44.53609" lon="2.56695">
        <ele>356</ele>
        <time>2021-02-22T16:01:36Z</time>
      </trkpt>
      <trkpt lat="44.53603" lon="2.56679">
        <ele>354</ele>
        <time>2021-02-22T16:01:39Z</time>
      </trkpt>
      <trkpt lat="44.53595" lon="2.56664">
        <ele>354</ele>
        <time>2021-02-22T16:01:42Z</time>
      </trkpt>
      <trkpt lat="44.53591" lon="2.56649">
        <ele>351</ele>
        <time>2021-02-22T16:01:45Z</time>
      </trkpt>
      <trkpt lat="44.53614" lon="2.5666">
        <ele>346</ele>
        <time>2021-02-22T16:01:50Z</time>
      </trkpt>
      <trkpt lat="44.53626" lon="2.5666">
        <ele>342</ele>
        <time>2021-02-22T16:01:53Z</time>
      </trkpt>
      <trkpt lat="44.53632" lon="2.56652">
        <ele>338</ele>
        <time>2021-02-22T16:01:55Z</time>
      </trkpt>
      <trkpt lat="44.53631" lon="2.56639">
        <ele>336</ele>
        <time>2021-02-22T16:01:57Z</time>
      </trkpt>
      <trkpt lat="44.53622" lon="2.56612">
        <ele>333</ele>
        <time>2021-02-22T16:02:02Z</time>
      </trkpt>
      <trkpt lat="44.53608" lon="2.56586">
        <ele>330</ele>
        <time>2021-02-22T16:02:08Z</time>
      </trkpt>
      <trkpt lat="44.53625" lon="2.56591">
        <ele>327</ele>
        <time>2021-02-22T16:02:12Z</time>
      </trkpt>
      <trkpt lat="44.53657" lon="2.56596">
        <ele>321</ele>
        <time>2021-02-22T16:02:19Z</time>
      </trkpt>
      <trkpt lat="44.53673" lon="2.56588">
        <ele>317</ele>
        <time>2021-02-22T16:02:23Z</time>
      </trkpt>
      <trkpt lat="44.53684" lon="2.56576">
        <ele>315</ele>
        <time>2021-02-22T16:02:26Z</time>
      </trkpt>
      <trkpt lat="44.53695" lon="2.5654">
        <ele>311</ele>
        <time>2021-02-22T16:02:33Z</time>
      </trkpt>
      <trkpt lat="44.53697" lon="2.56543">
        <ele>311</ele>
        <time>2021-02-22T16:02:34Z</time>
      </trkpt>
      <trkpt lat="44.53711" lon="2.56554">
        <ele>312</ele>
        <time>2021-02-22T16:02:37Z</time>
      </trkpt>
      <trkpt lat="44.53726" lon="2.56561">
        <ele>312</ele>
        <time>2021-02-22T16:02:41Z</time>
      </trkpt>
      <trkpt lat="44.53732" lon="2.56552">
        <ele>311</ele>
        <time>2021-02-22T16:02:43Z</time>
      </trkpt>
      <trkpt lat="44.5379" lon="2.56517">
        <ele>311</ele>
        <time>2021-02-22T16:02:58Z</time>
      </trkpt>
      <trkpt lat="44.53797" lon="2.56507">
        <ele>311</ele>
        <time>2021-02-22T16:03:00Z</time>
      </trkpt>
      <trkpt lat="44.53846" lon="2.56438">
        <ele>313</ele>
        <time>2021-02-22T16:03:16Z</time>
      </trkpt>
      <trkpt lat="44.53872" lon="2.56402">
        <ele>314</ele>
        <time>2021-02-22T16:03:25Z</time>
      </trkpt>
      <trkpt lat="44.53888" lon="2.5638">
        <ele>313</ele>
        <time>2021-02-22T16:03:30Z</time>
      </trkpt>
      <trkpt lat="44.53926" lon="2.56338">
        <ele>305</ele>
        <time>2021-02-22T16:03:42Z</time>
      </trkpt>
      <trkpt lat="44.53926" lon="2.56337">
        <ele>305</ele>
        <time>2021-02-22T16:03:42Z</time>
      </trkpt>
      <trkpt lat="44.53953" lon="2.56297">
        <ele>303</ele>
        <time>2021-02-22T16:03:51Z</time>
      </trkpt>
      <trkpt lat="44.53959" lon="2.56284">
        <ele>303</ele>
        <time>2021-02-22T16:03:53Z</time>
      </trkpt>
      <trkpt lat="44.53962" lon="2.56273">
        <ele>303</ele>
        <time>2021-02-22T16:03:55Z</time>
      </trkpt>
      <trkpt lat="44.53962" lon="2.56254">
        <ele>302</ele>
        <time>2021-02-22T16:03:59Z</time>
      </trkpt>
      <trkpt lat="44.53958" lon="2.56222">
        <ele>304</ele>
        <time>2021-02-22T16:04:04Z</time>
      </trkpt>
      <trkpt lat="44.53923" lon="2.56109">
        <ele>306</ele>
        <time>2021-02-22T16:04:24Z</time>
      </trkpt>
      <trkpt lat="44.53893" lon="2.56017">
        <ele>311</ele>
        <time>2021-02-22T16:04:41Z</time>
      </trkpt>
      <trkpt lat="44.53879" lon="2.55954">
        <ele>314</ele>
        <time>2021-02-22T16:04:52Z</time>
      </trkpt>
      <trkpt lat="44.53871" lon="2.55903">
        <ele>316</ele>
        <time>2021-02-22T16:05:01Z</time>
      </trkpt>
      <trkpt lat="44.53867" lon="2.55891">
        <ele>317</ele>
        <time>2021-02-22T16:05:03Z</time>
      </trkpt>
      <trkpt lat="44.53861" lon="2.55878">
        <ele>317</ele>
        <time>2021-02-22T16:05:06Z</time>
      </trkpt>
      <trkpt lat="44.53813" lon="2.55809">
        <ele>316</ele>
        <time>2021-02-22T16:05:22Z</time>
      </trkpt>
      <trkpt lat="44.53802" lon="2.55775">
        <ele>315</ele>
        <time>2021-02-22T16:05:28Z</time>
      </trkpt>
      <trkpt lat="44.53799" lon="2.55723">
        <ele>315</ele>
        <time>2021-02-22T16:05:37Z</time>
      </trkpt>
      <trkpt lat="44.53804" lon="2.55681">
        <ele>317</ele>
        <time>2021-02-22T16:05:44Z</time>
      </trkpt>
      <trkpt lat="44.53811" lon="2.55669">
        <ele>319</ele>
        <time>2021-02-22T16:05:46Z</time>
      </trkpt>
      <trkpt lat="44.53849" lon="2.55627">
        <ele>325</ele>
        <time>2021-02-22T16:05:58Z</time>
      </trkpt>
      <trkpt lat="44.53859" lon="2.55616">
        <ele>326</ele>
        <time>2021-02-22T16:06:01Z</time>
      </trkpt>
      <trkpt lat="44.53877" lon="2.55573">
        <ele>328</ele>
        <time>2021-02-22T16:06:09Z</time>
      </trkpt>
      <trkpt lat="44.53887" lon="2.5556">
        <ele>329</ele>
        <time>2021-02-22T16:06:12Z</time>
      </trkpt>
      <trkpt lat="44.53899" lon="2.55535">
        <ele>331</ele>
        <time>2021-02-22T16:06:17Z</time>
      </trkpt>
      <trkpt lat="44.53901" lon="2.55526">
        <ele>331</ele>
        <time>2021-02-22T16:06:19Z</time>
      </trkpt>
      <trkpt lat="44.539" lon="2.55506">
        <ele>331</ele>
        <time>2021-02-22T16:06:22Z</time>
      </trkpt>
      <trkpt lat="44.53891" lon="2.55476">
        <ele>331</ele>
        <time>2021-02-22T16:06:27Z</time>
      </trkpt>
      <trkpt lat="44.53885" lon="2.55447">
        <ele>331</ele>
        <time>2021-02-22T16:06:33Z</time>
      </trkpt>
      <trkpt lat="44.53886" lon="2.55411">
        <ele>332</ele>
        <time>2021-02-22T16:06:39Z</time>
      </trkpt>
      <trkpt lat="44.53893" lon="2.55374">
        <ele>333</ele>
        <time>2021-02-22T16:06:45Z</time>
      </trkpt>
      <trkpt lat="44.53902" lon="2.55346">
        <ele>335</ele>
        <time>2021-02-22T16:06:50Z</time>
      </trkpt>
      <trkpt lat="44.53938" lon="2.55296">
        <ele>340</ele>
        <time>2021-02-22T16:07:02Z</time>
      </trkpt>
      <trkpt lat="44.53964" lon="2.55265">
        <ele>344</ele>
        <time>2021-02-22T16:07:10Z</time>
      </trkpt>
      <trkpt lat="44.53986" lon="2.55244">
        <ele>346</ele>
        <time>2021-02-22T16:07:16Z</time>
      </trkpt>
      <trkpt lat="44.54101" lon="2.55149">
        <ele>356</ele>
        <time>2021-02-22T16:07:47Z</time>
      </trkpt>
      <trkpt lat="44.54144" lon="2.55119">
        <ele>359</ele>
        <time>2021-02-22T16:07:58Z</time>
      </trkpt>
      <trkpt lat="44.54183" lon="2.55096">
        <ele>364</ele>
        <time>2021-02-22T16:08:08Z</time>
      </trkpt>
      <trkpt lat="44.54199" lon="2.55081">
        <ele>366</ele>
        <time>2021-02-22T16:08:13Z</time>
      </trkpt>
      <trkpt lat="44.54209" lon="2.55068">
        <ele>369</ele>
        <time>2021-02-22T16:08:16Z</time>
      </trkpt>
      <trkpt lat="44.54214" lon="2.55054">
        <ele>371</ele>
        <time>2021-02-22T16:08:19Z</time>
      </trkpt>
      <trkpt lat="44.54219" lon="2.55031">
        <ele>374</ele>
        <time>2021-02-22T16:08:23Z</time>
      </trkpt>
      <trkpt lat="44.54219" lon="2.55011">
        <ele>375</ele>
        <time>2021-02-22T16:08:26Z</time>
      </trkpt>
      <trkpt lat="44.54216" lon="2.54989">
        <ele>375</ele>
        <time>2021-02-22T16:08:30Z</time>
      </trkpt>
      <trkpt lat="44.54211" lon="2.54977">
        <ele>375</ele>
        <time>2021-02-22T16:08:32Z</time>
      </trkpt>
      <trkpt lat="44.54206" lon="2.54966">
        <ele>374</ele>
        <time>2021-02-22T16:08:34Z</time>
      </trkpt>
      <trkpt lat="44.5418" lon="2.54921">
        <ele>369</ele>
        <time>2021-02-22T16:08:44Z</time>
      </trkpt>
      <trkpt lat="44.54177" lon="2.5491">
        <ele>368</ele>
        <time>2021-02-22T16:08:46Z</time>
      </trkpt>
      <trkpt lat="44.54179" lon="2.54877">
        <ele>367</ele>
        <time>2021-02-22T16:08:51Z</time>
      </trkpt>
      <trkpt lat="44.54183" lon="2.54865">
        <ele>368</ele>
        <time>2021-02-22T16:08:53Z</time>
      </trkpt>
      <trkpt lat="44.5419" lon="2.54855">
        <ele>370</ele>
        <time>2021-02-22T16:08:56Z</time>
      </trkpt>
      <trkpt lat="44.54223" lon="2.54835">
        <ele>382</ele>
        <time>2021-02-22T16:09:04Z</time>
      </trkpt>
      <trkpt lat="44.54242" lon="2.54816">
        <ele>389</ele>
        <time>2021-02-22T16:09:10Z</time>
      </trkpt>
      <trkpt lat="44.54248" lon="2.54807">
        <ele>392</ele>
        <time>2021-02-22T16:09:12Z</time>
      </trkpt>
      <trkpt lat="44.5425" lon="2.54786">
        <ele>393</ele>
        <time>2021-02-22T16:09:15Z</time>
      </trkpt>
      <trkpt lat="44.54248" lon="2.54773">
        <ele>392</ele>
        <time>2021-02-22T16:09:17Z</time>
      </trkpt>
      <trkpt lat="44.54243" lon="2.54761">
        <ele>390</ele>
        <time>2021-02-22T16:09:20Z</time>
      </trkpt>
      <trkpt lat="44.54238" lon="2.54754">
        <ele>389</ele>
        <time>2021-02-22T16:09:21Z</time>
      </trkpt>
      <trkpt lat="44.54232" lon="2.5475">
        <ele>387</ele>
        <time>2021-02-22T16:09:23Z</time>
      </trkpt>
      <trkpt lat="44.5421" lon="2.54748">
        <ele>379</ele>
        <time>2021-02-22T16:09:28Z</time>
      </trkpt>
      <trkpt lat="44.54191" lon="2.54742">
        <ele>373</ele>
        <time>2021-02-22T16:09:33Z</time>
      </trkpt>
      <trkpt lat="44.54183" lon="2.54733">
        <ele>372</ele>
        <time>2021-02-22T16:09:35Z</time>
      </trkpt>
      <trkpt lat="44.5417" lon="2.54709">
        <ele>373</ele>
        <time>2021-02-22T16:09:40Z</time>
      </trkpt>
      <trkpt lat="44.5416" lon="2.54696">
        <ele>372</ele>
        <time>2021-02-22T16:09:43Z</time>
      </trkpt>
      <trkpt lat="44.54156" lon="2.54687">
        <ele>372</ele>
        <time>2021-02-22T16:09:45Z</time>
      </trkpt>
      <trkpt lat="44.54154" lon="2.54675">
        <ele>373</ele>
        <time>2021-02-22T16:09:47Z</time>
      </trkpt>
      <trkpt lat="44.54156" lon="2.54661">
        <ele>376</ele>
        <time>2021-02-22T16:09:49Z</time>
      </trkpt>
      <trkpt lat="44.54164" lon="2.54624">
        <ele>385</ele>
        <time>2021-02-22T16:09:56Z</time>
      </trkpt>
      <trkpt lat="44.54165" lon="2.54605">
        <ele>388</ele>
        <time>2021-02-22T16:09:59Z</time>
      </trkpt>
      <trkpt lat="44.5416" lon="2.5459">
        <ele>388</ele>
        <time>2021-02-22T16:10:02Z</time>
      </trkpt>
      <trkpt lat="44.54152" lon="2.54576">
        <ele>387</ele>
        <time>2021-02-22T16:10:05Z</time>
      </trkpt>
      <trkpt lat="44.5414" lon="2.54564">
        <ele>384</ele>
        <time>2021-02-22T16:10:08Z</time>
      </trkpt>
      <trkpt lat="44.54132" lon="2.54553">
        <ele>383</ele>
        <time>2021-02-22T16:10:11Z</time>
      </trkpt>
      <trkpt lat="44.54125" lon="2.54538">
        <ele>383</ele>
        <time>2021-02-22T16:10:14Z</time>
      </trkpt>
      <trkpt lat="44.54122" lon="2.54522">
        <ele>385</ele>
        <time>2021-02-22T16:10:17Z</time>
      </trkpt>
      <trkpt lat="44.5412" lon="2.54492">
        <ele>390</ele>
        <time>2021-02-22T16:10:22Z</time>
      </trkpt>
      <trkpt lat="44.54098" lon="2.5445">
        <ele>385</ele>
        <time>2021-02-22T16:10:30Z</time>
      </trkpt>
      <trkpt lat="44.54093" lon="2.54441">
        <ele>384</ele>
        <time>2021-02-22T16:10:32Z</time>
      </trkpt>
      <trkpt lat="44.54092" lon="2.5443">
        <ele>385</ele>
        <time>2021-02-22T16:10:34Z</time>
      </trkpt>
      <trkpt lat="44.54093" lon="2.54417">
        <ele>387</ele>
        <time>2021-02-22T16:10:36Z</time>
      </trkpt>
      <trkpt lat="44.54097" lon="2.54401">
        <ele>389</ele>
        <time>2021-02-22T16:10:39Z</time>
      </trkpt>
      <trkpt lat="44.54101" lon="2.5439">
        <ele>390</ele>
        <time>2021-02-22T16:10:41Z</time>
      </trkpt>
      <trkpt lat="44.54135" lon="2.54322">
        <ele>400</ele>
        <time>2021-02-22T16:10:55Z</time>
      </trkpt>
      <trkpt lat="44.54143" lon="2.54318">
        <ele>403</ele>
        <time>2021-02-22T16:10:57Z</time>
      </trkpt>
      <trkpt lat="44.5415" lon="2.54317">
        <ele>405</ele>
        <time>2021-02-22T16:10:58Z</time>
      </trkpt>
      <trkpt lat="44.54156" lon="2.54319">
        <ele>406</ele>
        <time>2021-02-22T16:11:00Z</time>
      </trkpt>
      <trkpt lat="44.54164" lon="2.54327">
        <ele>408</ele>
        <time>2021-02-22T16:11:02Z</time>
      </trkpt>
      <trkpt lat="44.54164" lon="2.54315">
        <ele>408</ele>
        <time>2021-02-22T16:11:04Z</time>
      </trkpt>
      <trkpt lat="44.54163" lon="2.54306">
        <ele>408</ele>
        <time>2021-02-22T16:11:06Z</time>
      </trkpt>
      <trkpt lat="44.54171" lon="2.54313">
        <ele>411</ele>
        <time>2021-02-22T16:11:08Z</time>
      </trkpt>
      <trkpt lat="44.54176" lon="2.54309">
        <ele>413</ele>
        <time>2021-02-22T16:11:09Z</time>
      </trkpt>
      <trkpt lat="44.54176" lon="2.543">
        <ele>413</ele>
        <time>2021-02-22T16:11:11Z</time>
      </trkpt>
      <trkpt lat="44.54161" lon="2.54256">
        <ele>408</ele>
        <time>2021-02-22T16:11:19Z</time>
      </trkpt>
      <trkpt lat="44.54159" lon="2.54222">
        <ele>411</ele>
        <time>2021-02-22T16:11:25Z</time>
      </trkpt>
      <trkpt lat="44.54158" lon="2.54214">
        <ele>412</ele>
        <time>2021-02-22T16:11:26Z</time>
      </trkpt>
      <trkpt lat="44.5418" lon="2.54228">
        <ele>416</ele>
        <time>2021-02-22T16:11:32Z</time>
      </trkpt>
      <trkpt lat="44.54195" lon="2.54228">
        <ele>421</ele>
        <time>2021-02-22T16:11:35Z</time>
      </trkpt>
      <trkpt lat="44.542" lon="2.54221">
        <ele>423</ele>
        <time>2021-02-22T16:11:37Z</time>
      </trkpt>
      <trkpt lat="44.54197" lon="2.54182">
        <ele>426</ele>
        <time>2021-02-22T16:11:43Z</time>
      </trkpt>
      <trkpt lat="44.5418" lon="2.54155">
        <ele>425</ele>
        <time>2021-02-22T16:11:49Z</time>
      </trkpt>
      <trkpt lat="44.54172" lon="2.54079">
        <ele>436</ele>
        <time>2021-02-22T16:12:02Z</time>
      </trkpt>
      <trkpt lat="44.54168" lon="2.54">
        <ele>448</ele>
        <time>2021-02-22T16:12:15Z</time>
      </trkpt>
      <trkpt lat="44.54174" lon="2.53998">
        <ele>451</ele>
        <time>2021-02-22T16:12:17Z</time>
      </trkpt>
      <trkpt lat="44.5419" lon="2.5401">
        <ele>453</ele>
        <time>2021-02-22T16:12:21Z</time>
      </trkpt>
      <trkpt lat="44.54204" lon="2.54037">
        <ele>453</ele>
        <time>2021-02-22T16:12:26Z</time>
      </trkpt>
      <trkpt lat="44.54208" lon="2.54074">
        <ele>448</ele>
        <time>2021-02-22T16:12:33Z</time>
      </trkpt>
      <trkpt lat="44.54217" lon="2.54091">
        <ele>448</ele>
        <time>2021-02-22T16:12:36Z</time>
      </trkpt>
      <trkpt lat="44.54238" lon="2.54107">
        <ele>451</ele>
        <time>2021-02-22T16:12:42Z</time>
      </trkpt>
      <trkpt lat="44.54248" lon="2.5412">
        <ele>451</ele>
        <time>2021-02-22T16:12:45Z</time>
      </trkpt>
      <trkpt lat="44.54261" lon="2.54126">
        <ele>455</ele>
        <time>2021-02-22T16:12:48Z</time>
      </trkpt>
      <trkpt lat="44.54267" lon="2.54121">
        <ele>458</ele>
        <time>2021-02-22T16:12:50Z</time>
      </trkpt>
      <trkpt lat="44.54258" lon="2.54109">
        <ele>457</ele>
        <time>2021-02-22T16:12:53Z</time>
      </trkpt>
      <trkpt lat="44.5424" lon="2.54093">
        <ele>454</ele>
        <time>2021-02-22T16:12:58Z</time>
      </trkpt>
      <trkpt lat="44.54234" lon="2.5406">
        <ele>458</ele>
        <time>2021-02-22T16:13:03Z</time>
      </trkpt>
      <trkpt lat="44.54236" lon="2.54015">
        <ele>466</ele>
        <time>2021-02-22T16:13:11Z</time>
      </trkpt>
      <trkpt lat="44.5423" lon="2.53939">
        <ele>475</ele>
        <time>2021-02-22T16:13:24Z</time>
      </trkpt>
      <trkpt lat="44.5422" lon="2.53876">
        <ele>480</ele>
        <time>2021-02-22T16:13:34Z</time>
      </trkpt>
      <trkpt lat="44.54222" lon="2.53847">
        <ele>483</ele>
        <time>2021-02-22T16:13:39Z</time>
      </trkpt>
      <trkpt lat="44.54263" lon="2.53816">
        <ele>488</ele>
        <time>2021-02-22T16:13:50Z</time>
      </trkpt>
      <trkpt lat="44.54288" lon="2.53804">
        <ele>492</ele>
        <time>2021-02-22T16:13:56Z</time>
      </trkpt>
      <trkpt lat="44.54316" lon="2.53798">
        <ele>498</ele>
        <time>2021-02-22T16:14:03Z</time>
      </trkpt>
      <trkpt lat="44.54333" lon="2.53789">
        <ele>500</ele>
        <time>2021-02-22T16:14:07Z</time>
      </trkpt>
      <trkpt lat="44.54344" lon="2.53757">
        <ele>499</ele>
        <time>2021-02-22T16:14:13Z</time>
      </trkpt>
      <trkpt lat="44.54353" lon="2.53715">
        <ele>492</ele>
        <time>2021-02-22T16:14:20Z</time>
      </trkpt>
      <trkpt lat="44.54387" lon="2.5369">
        <ele>496</ele>
        <time>2021-02-22T16:14:29Z</time>
      </trkpt>
      <trkpt lat="44.54419" lon="2.53678">
        <ele>502</ele>
        <time>2021-02-22T16:14:37Z</time>
      </trkpt>
      <trkpt lat="44.54444" lon="2.53656">
        <ele>508</ele>
        <time>2021-02-22T16:14:44Z</time>
      </trkpt>
      <trkpt lat="44.54448" lon="2.53638">
        <ele>509</ele>
        <time>2021-02-22T16:14:47Z</time>
      </trkpt>
      <trkpt lat="44.54438" lon="2.53565">
        <ele>505</ele>
        <time>2021-02-22T16:14:59Z</time>
      </trkpt>
      <trkpt lat="44.54436" lon="2.53521">
        <ele>511</ele>
        <time>2021-02-22T16:15:07Z</time>
      </trkpt>
      <trkpt lat="44.5442" lon="2.535">
        <ele>509</ele>
        <time>2021-02-22T16:15:12Z</time>
      </trkpt>
      <trkpt lat="44.54398" lon="2.53483">
        <ele>506</ele>
        <time>2021-02-22T16:15:18Z</time>
      </trkpt>
      <trkpt lat="44.54383" lon="2.53465">
        <ele>505</ele>
        <time>2021-02-22T16:15:22Z</time>
      </trkpt>
      <trkpt lat="44.54385" lon="2.53452">
        <ele>507</ele>
        <time>2021-02-22T16:15:25Z</time>
      </trkpt>
      <trkpt lat="44.54414" lon="2.53443">
        <ele>515</ele>
        <time>2021-02-22T16:15:31Z</time>
      </trkpt>
      <trkpt lat="44.54472" lon="2.53434">
        <ele>530</ele>
        <time>2021-02-22T16:15:45Z</time>
      </trkpt>
      <trkpt lat="44.5453" lon="2.53384">
        <ele>540</ele>
        <time>2021-02-22T16:16:01Z</time>
      </trkpt>
      <trkpt lat="44.54564" lon="2.53368">
        <ele>547</ele>
        <time>2021-02-22T16:16:09Z</time>
      </trkpt>
      <trkpt lat="44.54607" lon="2.53339">
        <ele>553</ele>
        <time>2021-02-22T16:16:20Z</time>
      </trkpt>
      <trkpt lat="44.54637" lon="2.53331">
        <ele>557</ele>
        <time>2021-02-22T16:16:28Z</time>
      </trkpt>
      <trkpt lat="44.54652" lon="2.53334">
        <ele>560</ele>
        <time>2021-02-22T16:16:31Z</time>
      </trkpt>
      <trkpt lat="44.5467" lon="2.53342">
        <ele>566</ele>
        <time>2021-02-22T16:16:36Z</time>
      </trkpt>
      <trkpt lat="44.54705" lon="2.53336">
        <ele>569</ele>
        <time>2021-02-22T16:16:44Z</time>
      </trkpt>
      <trkpt lat="44.54716" lon="2.5333">
        <ele>570</ele>
        <time>2021-02-22T16:16:47Z</time>
      </trkpt>
      <trkpt lat="44.54728" lon="2.53304">
        <ele>572</ele>
        <time>2021-02-22T16:16:52Z</time>
      </trkpt>
      <trkpt lat="44.54732" lon="2.53281">
        <ele>573</ele>
        <time>2021-02-22T16:16:56Z</time>
      </trkpt>
      <trkpt lat="44.54733" lon="2.53261">
        <ele>573</ele>
        <time>2021-02-22T16:16:59Z</time>
      </trkpt>
      <trkpt lat="44.54722" lon="2.5324">
        <ele>573</ele>
        <time>2021-02-22T16:17:03Z</time>
      </trkpt>
      <trkpt lat="44.54707" lon="2.53219">
        <ele>574</ele>
        <time>2021-02-22T16:17:08Z</time>
      </trkpt>
      <trkpt lat="44.54746" lon="2.53217">
        <ele>583</ele>
        <time>2021-02-22T16:17:17Z</time>
      </trkpt>
      <trkpt lat="44.54773" lon="2.53224">
        <ele>582</ele>
        <time>2021-02-22T16:17:24Z</time>
      </trkpt>
      <trkpt lat="44.5479" lon="2.53236">
        <ele>580</ele>
        <time>2021-02-22T16:17:28Z</time>
      </trkpt>
      <trkpt lat="44.54793" lon="2.53197">
        <ele>584</ele>
        <time>2021-02-22T16:17:35Z</time>
      </trkpt>
      <trkpt lat="44.54804" lon="2.53158">
        <ele>586</ele>
        <time>2021-02-22T16:17:42Z</time>
      </trkpt>
      <trkpt lat="44.54834" lon="2.53106">
        <ele>584</ele>
        <time>2021-02-22T16:17:53Z</time>
      </trkpt>
      <trkpt lat="44.54835" lon="2.53088">
        <ele>584</ele>
        <time>2021-02-22T16:17:56Z</time>
      </trkpt>
      <trkpt lat="44.54826" lon="2.53064">
        <ele>585</ele>
        <time>2021-02-22T16:18:00Z</time>
      </trkpt>
      <trkpt lat="44.54811" lon="2.53043">
        <ele>587</ele>
        <time>2021-02-22T16:18:05Z</time>
      </trkpt>
      <trkpt lat="44.54764" lon="2.52991">
        <ele>591</ele>
        <time>2021-02-22T16:18:19Z</time>
      </trkpt>
      <trkpt lat="44.54712" lon="2.52949">
        <ele>592</ele>
        <time>2021-02-22T16:18:33Z</time>
      </trkpt>
      <trkpt lat="44.54702" lon="2.52938">
        <ele>593</ele>
        <time>2021-02-22T16:18:36Z</time>
      </trkpt>
      <trkpt lat="44.54698" lon="2.52927">
        <ele>593</ele>
        <time>2021-02-22T16:18:38Z</time>
      </trkpt>
      <trkpt lat="44.54696" lon="2.5291">
        <ele>594</ele>
        <time>2021-02-22T16:18:41Z</time>
      </trkpt>
      <trkpt lat="44.54698" lon="2.52844">
        <ele>599</ele>
        <time>2021-02-22T16:18:52Z</time>
      </trkpt>
      <trkpt lat="44.54696" lon="2.52755">
        <ele>607</ele>
        <time>2021-02-22T16:19:07Z</time>
      </trkpt>
      <trkpt lat="44.54699" lon="2.52734">
        <ele>608</ele>
        <time>2021-02-22T16:19:11Z</time>
      </trkpt>
      <trkpt lat="44.54713" lon="2.5269">
        <ele>610</ele>
        <time>2021-02-22T16:19:19Z</time>
      </trkpt>
      <trkpt lat="44.54717" lon="2.52669">
        <ele>610</ele>
        <time>2021-02-22T16:19:22Z</time>
      </trkpt>
      <trkpt lat="44.54719" lon="2.52644">
        <ele>611</ele>
        <time>2021-02-22T16:19:26Z</time>
      </trkpt>
      <trkpt lat="44.54717" lon="2.52505">
        <ele>615</ele>
        <time>2021-02-22T16:19:50Z</time>
      </trkpt>
      <trkpt lat="44.54707" lon="2.52419">
        <ele>616</ele>
        <time>2021-02-22T16:20:04Z</time>
      </trkpt>
      <trkpt lat="44.54706" lon="2.52387">
        <ele>617</ele>
        <time>2021-02-22T16:20:09Z</time>
      </trkpt>
      <trkpt lat="44.54709" lon="2.52342">
        <ele>617</ele>
        <time>2021-02-22T16:20:17Z</time>
      </trkpt>
      <trkpt lat="44.54707" lon="2.52321">
        <ele>617</ele>
        <time>2021-02-22T16:20:20Z</time>
      </trkpt>
      <trkpt lat="44.54694" lon="2.52276">
        <ele>619</ele>
        <time>2021-02-22T16:20:29Z</time>
      </trkpt>
      <trkpt lat="44.54681" lon="2.5224">
        <ele>621</ele>
        <time>2021-02-22T16:20:35Z</time>
      </trkpt>
      <trkpt lat="44.54676" lon="2.52223">
        <ele>622</ele>
        <time>2021-02-22T16:20:38Z</time>
      </trkpt>
      <trkpt lat="44.54676" lon="2.52206">
        <ele>622</ele>
        <time>2021-02-22T16:20:41Z</time>
      </trkpt>
      <trkpt lat="44.54684" lon="2.52181">
        <ele>622</ele>
        <time>2021-02-22T16:20:46Z</time>
      </trkpt>
      <trkpt lat="44.54694" lon="2.52154">
        <ele>622</ele>
        <time>2021-02-22T16:20:51Z</time>
      </trkpt>
      <trkpt lat="44.54698" lon="2.5213">
        <ele>622</ele>
        <time>2021-02-22T16:20:55Z</time>
      </trkpt>
      <trkpt lat="44.54698" lon="2.52098">
        <ele>622</ele>
        <time>2021-02-22T16:21:00Z</time>
      </trkpt>
      <trkpt lat="44.54685" lon="2.51978">
        <ele>623</ele>
        <time>2021-02-22T16:21:20Z</time>
      </trkpt>
      <trkpt lat="44.5468" lon="2.51942">
        <ele>620</ele>
        <time>2021-02-22T16:21:27Z</time>
      </trkpt>
      <trkpt lat="44.5468" lon="2.51865">
        <ele>616</ele>
        <time>2021-02-22T16:21:39Z</time>
      </trkpt>
      <trkpt lat="44.54688" lon="2.51817">
        <ele>615</ele>
        <time>2021-02-22T16:21:48Z</time>
      </trkpt>
      <trkpt lat="44.54697" lon="2.51787">
        <ele>616</ele>
        <time>2021-02-22T16:21:53Z</time>
      </trkpt>
      <trkpt lat="44.54701" lon="2.51755">
        <ele>617</ele>
        <time>2021-02-22T16:21:58Z</time>
      </trkpt>
      <trkpt lat="44.54702" lon="2.51738">
        <ele>618</ele>
        <time>2021-02-22T16:22:01Z</time>
      </trkpt>
      <trkpt lat="44.547" lon="2.51714">
        <ele>619</ele>
        <time>2021-02-22T16:22:05Z</time>
      </trkpt>
      <trkpt lat="44.54689" lon="2.5168">
        <ele>620</ele>
        <time>2021-02-22T16:22:11Z</time>
      </trkpt>
      <trkpt lat="44.54674" lon="2.51595">
        <ele>624</ele>
        <time>2021-02-22T16:22:26Z</time>
      </trkpt>
      <trkpt lat="44.54668" lon="2.51576">
        <ele>625</ele>
        <time>2021-02-22T16:22:29Z</time>
      </trkpt>
      <trkpt lat="44.54662" lon="2.51562">
        <ele>626</ele>
        <time>2021-02-22T16:22:32Z</time>
      </trkpt>
      <trkpt lat="44.5464" lon="2.51524">
        <ele>628</ele>
        <time>2021-02-22T16:22:40Z</time>
      </trkpt>
      <trkpt lat="44.54634" lon="2.51507">
        <ele>630</ele>
        <time>2021-02-22T16:22:43Z</time>
      </trkpt>
      <trkpt lat="44.54633" lon="2.51491">
        <ele>632</ele>
        <time>2021-02-22T16:22:46Z</time>
      </trkpt>
      <trkpt lat="44.54636" lon="2.51477">
        <ele>633</ele>
        <time>2021-02-22T16:22:49Z</time>
      </trkpt>
      <trkpt lat="44.54649" lon="2.51449">
        <ele>636</ele>
        <time>2021-02-22T16:22:54Z</time>
      </trkpt>
      <trkpt lat="44.54657" lon="2.51436">
        <ele>637</ele>
        <time>2021-02-22T16:22:57Z</time>
      </trkpt>
      <trkpt lat="44.5467" lon="2.5142">
        <ele>637</ele>
        <time>2021-02-22T16:23:01Z</time>
      </trkpt>
      <trkpt lat="44.54678" lon="2.51401">
        <ele>638</ele>
        <time>2021-02-22T16:23:05Z</time>
      </trkpt>
      <trkpt lat="44.54681" lon="2.51377">
        <ele>639</ele>
        <time>2021-02-22T16:23:09Z</time>
      </trkpt>
      <trkpt lat="44.54679" lon="2.51353">
        <ele>641</ele>
        <time>2021-02-22T16:23:13Z</time>
      </trkpt>
      <trkpt lat="44.54663" lon="2.51318">
        <ele>644</ele>
        <time>2021-02-22T16:23:20Z</time>
      </trkpt>
      <trkpt lat="44.54623" lon="2.51251">
        <ele>650</ele>
        <time>2021-02-22T16:23:34Z</time>
      </trkpt>
      <trkpt lat="44.54613" lon="2.5123">
        <ele>652</ele>
        <time>2021-02-22T16:23:38Z</time>
      </trkpt>
      <trkpt lat="44.54604" lon="2.51202">
        <ele>655</ele>
        <time>2021-02-22T16:23:44Z</time>
      </trkpt>
      <trkpt lat="44.54605" lon="2.51189">
        <ele>655</ele>
        <time>2021-02-22T16:23:46Z</time>
      </trkpt>
      <trkpt lat="44.54611" lon="2.51171">
        <ele>654</ele>
        <time>2021-02-22T16:23:49Z</time>
      </trkpt>
      <trkpt lat="44.54625" lon="2.51145">
        <ele>652</ele>
        <time>2021-02-22T16:23:54Z</time>
      </trkpt>
      <trkpt lat="44.54626" lon="2.51136">
        <ele>651</ele>
        <time>2021-02-22T16:23:56Z</time>
      </trkpt>
      <trkpt lat="44.54626" lon="2.51128">
        <ele>651</ele>
        <time>2021-02-22T16:23:57Z</time>
      </trkpt>
      <trkpt lat="44.54624" lon="2.51119">
        <ele>652</ele>
        <time>2021-02-22T16:23:59Z</time>
      </trkpt>
      <trkpt lat="44.54612" lon="2.51092">
        <ele>653</ele>
        <time>2021-02-22T16:24:04Z</time>
      </trkpt>
      <trkpt lat="44.54608" lon="2.51072">
        <ele>653</ele>
        <time>2021-02-22T16:24:08Z</time>
      </trkpt>
      <trkpt lat="44.54609" lon="2.5106">
        <ele>653</ele>
        <time>2021-02-22T16:24:10Z</time>
      </trkpt>
      <trkpt lat="44.54607" lon="2.51047">
        <ele>653</ele>
        <time>2021-02-22T16:24:12Z</time>
      </trkpt>
      <trkpt lat="44.54602" lon="2.51039">
        <ele>653</ele>
        <time>2021-02-22T16:24:14Z</time>
      </trkpt>
      <trkpt lat="44.54581" lon="2.51053">
        <ele>656</ele>
        <time>2021-02-22T16:24:19Z</time>
      </trkpt>
      <trkpt lat="44.54531" lon="2.51066">
        <ele>667</ele>
        <time>2021-02-22T16:24:31Z</time>
      </trkpt>
      <trkpt lat="44.54509" lon="2.51068">
        <ele>672</ele>
        <time>2021-02-22T16:24:36Z</time>
      </trkpt>
      <trkpt lat="44.54485" lon="2.51065">
        <ele>674</ele>
        <time>2021-02-22T16:24:42Z</time>
      </trkpt>
      <trkpt lat="44.54476" lon="2.5106">
        <ele>674</ele>
        <time>2021-02-22T16:24:44Z</time>
      </trkpt>
      <trkpt lat="44.5446" lon="2.51044">
        <ele>675</ele>
        <time>2021-02-22T16:24:49Z</time>
      </trkpt>
      <trkpt lat="44.54445" lon="2.51013">
        <ele>674</ele>
        <time>2021-02-22T16:24:55Z</time>
      </trkpt>
      <trkpt lat="44.54433" lon="2.50983">
        <ele>674</ele>
        <time>2021-02-22T16:25:01Z</time>
      </trkpt>
      <trkpt lat="44.54399" lon="2.50918">
        <ele>673</ele>
        <time>2021-02-22T16:25:14Z</time>
      </trkpt>
      <trkpt lat="44.54383" lon="2.5086">
        <ele>673</ele>
        <time>2021-02-22T16:25:24Z</time>
      </trkpt>
      <trkpt lat="44.54306" lon="2.50638">
        <ele>671</ele>
        <time>2021-02-22T16:26:05Z</time>
      </trkpt>
      <trkpt lat="44.54304" lon="2.50624">
        <ele>672</ele>
        <time>2021-02-22T16:26:08Z</time>
      </trkpt>
      <trkpt lat="44.54306" lon="2.50528">
        <ele>673</ele>
        <time>2021-02-22T16:26:24Z</time>
      </trkpt>
      <trkpt lat="44.54309" lon="2.50502">
        <ele>673</ele>
        <time>2021-02-22T16:26:28Z</time>
      </trkpt>
      <trkpt lat="44.54339" lon="2.50375">
        <ele>680</ele>
        <time>2021-02-22T16:26:50Z</time>
      </trkpt>
      <trkpt lat="44.54364" lon="2.50286">
        <ele>679</ele>
        <time>2021-02-22T16:27:06Z</time>
      </trkpt>
      <trkpt lat="44.5437" lon="2.50257">
        <ele>678</ele>
        <time>2021-02-22T16:27:11Z</time>
      </trkpt>
      <trkpt lat="44.54376" lon="2.50237">
        <ele>678</ele>
        <time>2021-02-22T16:27:15Z</time>
      </trkpt>
      <trkpt lat="44.54397" lon="2.50201">
        <ele>680</ele>
        <time>2021-02-22T16:27:23Z</time>
      </trkpt>
      <trkpt lat="44.54411" lon="2.50182">
        <ele>682</ele>
        <time>2021-02-22T16:27:27Z</time>
      </trkpt>
      <trkpt lat="44.54418" lon="2.50166">
        <ele>683</ele>
        <time>2021-02-22T16:27:30Z</time>
      </trkpt>
      <trkpt lat="44.54425" lon="2.50141">
        <ele>683</ele>
        <time>2021-02-22T16:27:35Z</time>
      </trkpt>
      <trkpt lat="44.5443" lon="2.50084">
        <ele>684</ele>
        <time>2021-02-22T16:27:44Z</time>
      </trkpt>
      <trkpt lat="44.54465" lon="2.49836">
        <ele>678</ele>
        <time>2021-02-22T16:28:27Z</time>
      </trkpt>
      <trkpt lat="44.54561" lon="2.49777">
        <ele>674</ele>
        <time>2021-02-22T16:28:51Z</time>
      </trkpt>
      <trkpt lat="44.54572" lon="2.49768">
        <ele>674</ele>
        <time>2021-02-22T16:28:54Z</time>
      </trkpt>
      <trkpt lat="44.54596" lon="2.49731">
        <ele>674</ele>
        <time>2021-02-22T16:29:02Z</time>
      </trkpt>
      <trkpt lat="44.5463" lon="2.49696">
        <ele>673</ele>
        <time>2021-02-22T16:29:12Z</time>
      </trkpt>
      <trkpt lat="44.54723" lon="2.49624">
        <ele>666</ele>
        <time>2021-02-22T16:29:37Z</time>
      </trkpt>
      <trkpt lat="44.54785" lon="2.49569">
        <ele>662</ele>
        <time>2021-02-22T16:29:54Z</time>
      </trkpt>
      <trkpt lat="44.54838" lon="2.4952">
        <ele>658</ele>
        <time>2021-02-22T16:30:09Z</time>
      </trkpt>
      <trkpt lat="44.54841" lon="2.49515">
        <ele>658</ele>
        <time>2021-02-22T16:30:10Z</time>
      </trkpt>
      <trkpt lat="44.54908" lon="2.49422">
        <ele>655</ele>
        <time>2021-02-22T16:30:32Z</time>
      </trkpt>
      <trkpt lat="44.54961" lon="2.49344">
        <ele>653</ele>
        <time>2021-02-22T16:30:50Z</time>
      </trkpt>
      <trkpt lat="44.55014" lon="2.49275">
        <ele>651</ele>
        <time>2021-02-22T16:31:07Z</time>
      </trkpt>
      <trkpt lat="44.55021" lon="2.49262">
        <ele>651</ele>
        <time>2021-02-22T16:31:10Z</time>
      </trkpt>
      <trkpt lat="44.55036" lon="2.49224">
        <ele>651</ele>
        <time>2021-02-22T16:31:17Z</time>
      </trkpt>
      <trkpt lat="44.55111" lon="2.49092">
        <ele>645</ele>
        <time>2021-02-22T16:31:45Z</time>
      </trkpt>
      <trkpt lat="44.55118" lon="2.49082">
        <ele>644</ele>
        <time>2021-02-22T16:31:47Z</time>
      </trkpt>
      <trkpt lat="44.55133" lon="2.49074">
        <ele>643</ele>
        <time>2021-02-22T16:31:51Z</time>
      </trkpt>
      <trkpt lat="44.55178" lon="2.49056">
        <ele>639</ele>
        <time>2021-02-22T16:32:02Z</time>
      </trkpt>
      <trkpt lat="44.55189" lon="2.49049">
        <ele>638</ele>
        <time>2021-02-22T16:32:05Z</time>
      </trkpt>
      <trkpt lat="44.55194" lon="2.49042">
        <ele>637</ele>
        <time>2021-02-22T16:32:06Z</time>
      </trkpt>
      <trkpt lat="44.55213" lon="2.49007">
        <ele>635</ele>
        <time>2021-02-22T16:32:14Z</time>
      </trkpt>
      <trkpt lat="44.55222" lon="2.49002">
        <ele>635</ele>
        <time>2021-02-22T16:32:16Z</time>
      </trkpt>
      <trkpt lat="44.55266" lon="2.48998">
        <ele>633</ele>
        <time>2021-02-22T16:32:26Z</time>
      </trkpt>
      <trkpt lat="44.55276" lon="2.48992">
        <ele>632</ele>
        <time>2021-02-22T16:32:29Z</time>
      </trkpt>
      <trkpt lat="44.55281" lon="2.48987">
        <ele>632</ele>
        <time>2021-02-22T16:32:30Z</time>
      </trkpt>
      <trkpt lat="44.5528" lon="2.48979">
        <ele>633</ele>
        <time>2021-02-22T16:32:32Z</time>
      </trkpt>
      <trkpt lat="44.55284" lon="2.48976">
        <ele>632</ele>
        <time>2021-02-22T16:32:33Z</time>
      </trkpt>
      <trkpt lat="44.55288" lon="2.48971">
        <ele>632</ele>
        <time>2021-02-22T16:32:34Z</time>
      </trkpt>
      <trkpt lat="44.553" lon="2.48937">
        <ele>631</ele>
        <time>2021-02-22T16:32:40Z</time>
      </trkpt>
      <trkpt lat="44.5532" lon="2.48862">
        <ele>627</ele>
        <time>2021-02-22T16:32:53Z</time>
      </trkpt>
      <trkpt lat="44.55333" lon="2.48838">
        <ele>625</ele>
        <time>2021-02-22T16:32:58Z</time>
      </trkpt>
      <trkpt lat="44.55347" lon="2.48818">
        <ele>625</ele>
        <time>2021-02-22T16:33:03Z</time>
      </trkpt>
      <trkpt lat="44.55373" lon="2.48795">
        <ele>624</ele>
        <time>2021-02-22T16:33:10Z</time>
      </trkpt>
      <trkpt lat="44.55387" lon="2.48789">
        <ele>623</ele>
        <time>2021-02-22T16:33:14Z</time>
      </trkpt>
      <trkpt lat="44.55445" lon="2.48778">
        <ele>621</ele>
        <time>2021-02-22T16:33:27Z</time>
      </trkpt>
      <trkpt lat="44.55489" lon="2.48772">
        <ele>620</ele>
        <time>2021-02-22T16:33:38Z</time>
      </trkpt>
      <trkpt lat="44.55514" lon="2.48768">
        <ele>621</ele>
        <time>2021-02-22T16:33:44Z</time>
      </trkpt>
      <trkpt lat="44.55517" lon="2.48781">
        <ele>621</ele>
        <time>2021-02-22T16:33:46Z</time>
      </trkpt>
      <trkpt lat="44.55534" lon="2.48778">
        <ele>622</ele>
        <time>2021-02-22T16:33:50Z</time>
      </trkpt>
      <trkpt lat="44.55554" lon="2.48774">
        <ele>624</ele>
        <time>2021-02-22T16:33:55Z</time>
      </trkpt>
      <trkpt lat="44.55583" lon="2.48773">
        <ele>626</ele>
        <time>2021-02-22T16:34:01Z</time>
      </trkpt>
      <trkpt lat="44.55606" lon="2.48765">
        <ele>627</ele>
        <time>2021-02-22T16:34:07Z</time>
      </trkpt>
      <trkpt lat="44.55635" lon="2.48769">
        <ele>630</ele>
        <time>2021-02-22T16:34:14Z</time>
      </trkpt>
      <trkpt lat="44.55694" lon="2.48765">
        <ele>634</ele>
        <time>2021-02-22T16:34:28Z</time>
      </trkpt>
      <trkpt lat="44.55688" lon="2.48695">
        <ele>628</ele>
        <time>2021-02-22T16:34:39Z</time>
      </trkpt>
      <trkpt lat="44.55686" lon="2.4867">
        <ele>625</ele>
        <time>2021-02-22T16:34:43Z</time>
      </trkpt>
    </trkseg>
  </trk>
</gpx>